Another Hard Day at the Office Weather Stats

 
 
 

High monthly outside Temperature, 31.9 , C
Low monthly outside Temperature, 11.3 , C
High yearly outside Temperature, 31.9 , C
Low yearly outside Temperature, 0.7 , C

Low monthly barometer, 999.4 , mb
High monthly barometer, 1023.0 , mb
Low yearly barometer, 976.8 , mb
High yearly barometer 1035.7 , mb

High wind speed, 17.0 , mph
Time of High wind speed, 13:48 , mph
High monthly wind speed, 33.0 , mph
High yearly wind speed, 64.0 , mph

 

 




3124
                    Temp     Hi    Low   Out    Dew  Wind  Wind   Wind    Hi    Hi   Wind   Heat    THW                Rain    Heat    Cool    In     In    In     In     In   In Air  Wind  Wind    ISS   Arc.
  Date    Time     Out   Temp   Temp   Hum    Pt. Speed   Dir    Run Speed   Dir  Chill  Index  Index   Bar    Rain  Rate    D-D     D-D    Temp   Hum    Dew   Heat    EMC Density  Samp   Tx   Recept  Int.
---------------------------------------------------------------------------------------------------------------------------------------------------------------------------------------------------------------
29/07/14   0:05   16.7   16.7   16.7    88   14.7   4.0    NW   0.33   6.0    NW   16.7   16.9   16.9  1015.0  0.00   0.0   0.006   0.000   30.0    43   16.1   30.4   7.95 1.1461    114    1    100.0    5 
29/07/14   0:10   16.7   16.7   16.7    88   14.7   4.0   WNW   0.33   7.0   WNW   16.7   16.9   16.9  1014.9  0.00   0.0   0.006   0.000   30.0    43   16.1   30.4   7.95 1.1459    117    1    100.0    5 
29/07/14   0:15   16.7   16.7   16.7    89   14.8   4.0    NW   0.33   7.0   WNW   16.7   16.9   16.9  1015.0  0.00   0.0   0.006   0.000   29.9    43   16.0   30.3   7.95 1.1463    116    1    100.0    5 
29/07/14   0:20   16.7   16.7   16.7    89   14.8   4.0   WNW   0.33   7.0    NW   16.7   16.9   16.9  1014.9  0.00   0.0   0.006   0.000   29.9    43   16.0   30.3   7.95 1.1462    115    1    100.0    5 
29/07/14   0:25   16.7   16.7   16.7    89   14.8   4.0   WNW   0.33   6.0   WNW   16.7   16.9   16.9  1014.8  0.00   0.0   0.006   0.000   29.9    43   16.0   30.3   7.95 1.1461    113    1     99.1    5 
29/07/14   0:30   16.7   16.7   16.7    89   14.9   3.0    NW   0.25   6.0    NW   16.7   17.0   17.0  1014.9  0.00   0.0   0.006   0.000   29.9    43   16.0   30.3   7.95 1.1462    117    1    100.0    5 
29/07/14   0:35   16.7   16.7   16.7    89   14.8   3.0    NW   0.25   6.0    NW   16.7   16.9   16.9  1014.8  0.00   0.0   0.006   0.000   29.9    43   16.0   30.3   7.95 1.1461    117    1    100.0    5 
29/07/14   0:40   16.7   16.7   16.7    89   14.8   3.0    NW   0.25   6.0   WNW   16.7   16.9   16.9  1014.8  0.00   0.0   0.006   0.000   29.9    43   16.0   30.3   7.95 1.1461    116    1    100.0    5 
29/07/14   0:45   16.7   16.7   16.7    89   14.9   3.0    NW   0.25   5.0    NW   16.7   17.0   17.0  1014.9  0.00   0.0   0.006   0.000   29.9    43   16.0   30.3   7.95 1.1462    118    1    100.0    5 
29/07/14   0:50   16.7   16.7   16.7    89   14.9   3.0   WNW   0.25   6.0    NW   16.7   17.0   17.0  1014.9  0.00   0.0   0.006   0.000   29.9    43   16.0   30.3   7.95 1.1465    117    1    100.0    5 
29/07/14   0:55   16.7   16.7   16.7    89   14.9   3.0    NW   0.25   5.0   NNW   16.7   17.0   17.0  1015.0  0.00   0.0   0.006   0.000   29.9    43   16.0   30.3   7.95 1.1466    116    1    100.0    5 
29/07/14   1:00   16.7   16.7   16.7    89   14.9   3.0    NW   0.25   5.0    NW   16.7   17.0   17.0  1014.9  0.00   0.0   0.006   0.000   29.8    43   15.9   30.2   7.95 1.1468    116    1    100.0    5 
29/07/14   1:05   16.7   16.8   16.7    89   14.9   3.0    NW   0.25   5.0    NW   16.7   17.0   17.0  1014.9  0.00   0.0   0.006   0.000   29.8    43   15.9   30.2   7.95 1.1468    117    1    100.0    5 
29/07/14   1:10   16.7   16.8   16.7    89   14.9   5.0    NW   0.42   9.0   NNW   16.7   17.0   17.0  1014.9  0.00   0.0   0.006   0.000   29.8    43   15.9   30.2   7.95 1.1468    117    1    100.0    5 
29/07/14   1:15   16.7   16.7   16.7    89   14.9   3.0    NW   0.25   8.0   NNW   16.7   17.0   17.0  1015.0  0.00   0.0   0.006   0.000   29.8    43   15.9   30.2   7.95 1.1469    116    1    100.0    5 
29/07/14   1:20   16.8   16.8   16.7    88   14.8   5.0   NNW   0.42   9.0   NNW   16.8   17.1   17.1  1015.0  0.00   0.0   0.005   0.000   29.8    43   15.9   30.2   7.95 1.1469    117    1    100.0    5 
29/07/14   1:25   16.7   16.7   16.7    88   14.7   6.0   NNW   0.50  10.0    NW   16.7   16.9   16.9  1014.9  0.00   0.0   0.006   0.000   29.8    43   15.9   30.2   7.95 1.1468    116    1    100.0    5 
29/07/14   1:30   16.7   16.7   16.7    88   14.7   5.0   NNW   0.42  10.0   NNW   16.7   16.9   16.9  1014.8  0.00   0.0   0.006   0.000   29.8    43   15.9   30.2   7.95 1.1467    116    1    100.0    5 
29/07/14   1:35   16.6   16.7   16.6    88   14.6   7.0   NNW   0.58  11.0   NNW   16.3   16.8   16.6  1014.9  0.00   0.0   0.006   0.000   29.8    43   15.9   30.2   7.95 1.1468    117    1    100.0    5 
29/07/14   1:40   16.6   16.6   16.5    88   14.6   7.0   NNW   0.58  11.0   NNW   16.3   16.8   16.6  1014.9  0.00   0.0   0.006   0.000   29.8    43   15.9   30.2   7.95 1.1471    116    1    100.0    5 
29/07/14   1:45   16.5   16.5   16.5    88   14.5   6.0   NNW   0.50  11.0   NNW   16.4   16.7   16.7  1015.0  0.00   0.0   0.006   0.000   29.8    43   15.9   30.2   7.95 1.1471    116    1    100.0    5 
29/07/14   1:50   16.5   16.5   16.4    88   14.5   4.0   NNW   0.33   8.0    NW   16.5   16.7   16.7  1014.9  0.00   0.0   0.006   0.000   29.8    43   15.9   30.2   7.95 1.1471    118    1    100.0    5 
29/07/14   1:55   16.5   16.5   16.4    88   14.5   5.0   NNW   0.42  10.0    NW   16.5   16.7   16.7  1014.8  0.00   0.0   0.006   0.000   29.8    43   15.9   30.2   7.95 1.1469    116    1    100.0    5 
29/07/14   2:00   16.4   16.5   16.4    88   14.5   6.0   NNW   0.50  12.0   NNW   16.4   16.7   16.6  1014.9  0.00   0.0   0.007   0.000   29.7    43   15.8   30.1   7.95 1.1473    117    1    100.0    5 
29/07/14   2:05   16.4   16.5   16.4    88   14.5   5.0   NNW   0.42   8.0     N   16.4   16.7   16.7  1014.9  0.00   0.0   0.007   0.000   29.7    43   15.8   30.1   7.95 1.1473    117    1    100.0    5 
29/07/14   2:10   16.4   16.5   16.4    88   14.5   5.0   NNW   0.42  10.0   NNW   16.4   16.7   16.7  1014.9  0.00   0.0   0.007   0.000   29.7    43   15.8   30.1   7.95 1.1474    117    1    100.0    5 
29/07/14   2:15   16.4   16.4   16.4    87   14.2   7.0   NNW   0.58  11.0   NNW   16.2   16.6   16.3  1014.8  0.00   0.0   0.007   0.000   29.7    43   15.8   30.1   7.95 1.1473    117    1    100.0    5 
29/07/14   2:20   16.4   16.4   16.3    87   14.2   6.0   NNW   0.50  11.0   NNE   16.3   16.6   16.5  1014.8  0.00   0.0   0.007   0.000   29.7    43   15.8   30.1   7.95 1.1473    117    1    100.0    5 
29/07/14   2:25   16.3   16.3   16.3    87   14.2   6.0   NNW   0.50  10.0     N   16.3   16.5   16.4  1014.9  0.00   0.0   0.007   0.000   29.7    43   15.8   30.1   7.95 1.1476    117    1    100.0    5 
29/07/14   2:30   16.3   16.3   16.3    87   14.1   6.0   NNW   0.50  12.0     N   16.2   16.4   16.4  1014.8  0.00   0.0   0.007   0.000   29.7    43   15.8   30.1   7.95 1.1475    117    1    100.0    5 
29/07/14   2:35   16.3   16.3   16.3    87   14.1   6.0   NNW   0.50  10.0   NNW   16.2   16.4   16.4  1014.9  0.00   0.0   0.007   0.000   29.7    43   15.8   30.1   7.95 1.1476    117    1    100.0    5 
29/07/14   2:40   16.2   16.3   16.2    87   14.1   4.0     N   0.33  11.0   NNW   16.2   16.4   16.4  1014.8  0.00   0.0   0.007   0.000   29.7    43   15.8   30.1   7.95 1.1475    115    1    100.0    5 
29/07/14   2:45   16.2   16.3   16.2    87   14.1   5.0     N   0.42   9.0     N   16.2   16.4   16.4  1014.7  0.00   0.0   0.007   0.000   29.6    43   15.7   30.0   7.95 1.1477    116    1    100.0    5 
29/07/14   2:50   16.2   16.2   16.2    87   14.1   4.0   NNW   0.33   7.0    NW   16.2   16.4   16.4  1014.7  0.00   0.0   0.007   0.000   29.6    43   15.7   30.0   7.95 1.1476    117    1    100.0    5 
29/07/14   2:55   16.2   16.3   16.2    87   14.1   4.0   NNW   0.33   8.0    NW   16.2   16.4   16.4  1014.6  0.00   0.0   0.007   0.000   29.6    43   15.7   30.0   7.95 1.1476    118    1    100.0    5 
29/07/14   3:00   16.3   16.3   16.2    86   13.9   5.0   NNW   0.42  10.0   NNW   16.3   16.4   16.4  1014.6  0.00   0.0   0.007   0.000   29.6    43   15.7   30.0   7.95 1.1476    116    1    100.0    5 
29/07/14   3:05   16.3   16.3   16.3    86   14.0   5.0   NNW   0.42  12.0   NNW   16.3   16.5   16.5  1014.6  0.20   0.0   0.007   0.000   29.6    43   15.7   29.9   7.95 1.1478    116    1    100.0    5 
29/07/14   3:10   16.3   16.3   16.3    86   14.0   5.0   NNW   0.42   9.0    NW   16.3   16.5   16.5  1014.7  0.00   0.0   0.007   0.000   29.6    43   15.7   29.9   7.95 1.1479    116    1    100.0    5 
29/07/14   3:15   16.3   16.3   16.3    86   14.0   5.0   NNW   0.42   9.0   NNW   16.3   16.5   16.5  1014.7  0.00   0.0   0.007   0.000   29.6    43   15.7   29.9   7.95 1.1480    116    1    100.0    5 
29/07/14   3:20   16.3   16.3   16.3    86   14.0   6.0   NNW   0.50  10.0   NNW   16.3   16.5   16.4  1014.7  0.00   0.0   0.007   0.000   29.6    43   15.7   29.9   7.95 1.1479    117    1    100.0    5 
29/07/14   3:25   16.3   16.3   16.3    86   13.9   4.0   NNW   0.33   7.0   NNW   16.3   16.4   16.4  1014.6  0.00   0.0   0.007   0.000   29.6    43   15.7   29.9   7.95 1.1478    115    1    100.0    5 
29/07/14   3:30   16.3   16.3   16.3    86   13.9   6.0   NNW   0.50  12.0     N   16.2   16.4   16.4  1014.5  0.00   0.0   0.007   0.000   29.6    43   15.7   29.9   7.95 1.1477    115    1    100.0    5 
29/07/14   3:35   16.3   16.3   16.3    86   13.9   5.0   NNW   0.42  10.0   NNW   16.3   16.4   16.4  1014.5  0.00   0.0   0.007   0.000   29.5    43   15.6   29.9   7.95 1.1480    115    1    100.0    5 
29/07/14   3:40   16.3   16.3   16.2    86   13.9   7.0   NNW   0.58  13.0     N   16.0   16.4   16.2  1014.5  0.00   0.0   0.007   0.000   29.5    43   15.6   29.9   7.95 1.1479    117    1    100.0    5 
29/07/14   3:45   16.3   16.3   16.2    86   13.9   6.0   NNW   0.50   9.0     N   16.2   16.4   16.4  1014.4  0.00   0.0   0.007   0.000   29.4    43   15.6   29.8   7.95 1.1482    117    1    100.0    5 
29/07/14   3:50   16.3   16.3   16.2    86   13.9   6.0   NNW   0.50  11.0   NNW   16.2   16.4   16.4  1014.5  0.00   0.0   0.007   0.000   29.4    43   15.6   29.8   7.95 1.1482    116    1    100.0    5 
29/07/14   3:55   16.2   16.3   16.2    86   13.9   6.0   NNW   0.50  11.0     N   16.1   16.4   16.3  1014.4  0.00   0.0   0.007   0.000   29.4    43   15.6   29.8   7.95 1.1482    118    1    100.0    5 
29/07/14   4:00   16.2   16.3   16.2    86   13.9   5.0   NNW   0.42   8.0    NW   16.2   16.4   16.4  1014.5  0.00   0.0   0.007   0.000   29.4    43   15.6   29.8   7.95 1.1482    117    1    100.0    5 
29/07/14   4:05   16.2   16.3   16.2    86   13.9   6.0   NNW   0.50  15.0   NNW   16.1   16.4   16.3  1014.5  0.00   0.0   0.007   0.000   29.4    43   15.5   29.8   7.95 1.1485    117    1    100.0    5 
29/07/14   4:10   16.2   16.2   16.2    86   13.9   7.0   NNW   0.58  15.0   NNW   15.9   16.4   16.1  1014.4  0.00   0.0   0.007   0.000   29.4    43   15.5   29.8   7.95 1.1484    115    1    100.0    5 
29/07/14   4:15   16.2   16.2   16.2    86   13.9   8.0   NNW   0.67  16.0    NW   15.5   16.4   15.7  1014.1  0.00   0.0   0.007   0.000   29.4    43   15.5   29.8   7.95 1.1481    116    1    100.0    5 
29/07/14   4:20   16.2   16.2   16.2    86   13.9   9.0   NNW   0.75  14.0     N   15.1   16.4   15.2  1013.9  0.00   0.0   0.007   0.000   29.4    43   15.5   29.8   7.95 1.1479    117    1    100.0    5 
29/07/14   4:25   16.2   16.2   16.2    86   13.9   9.0   NNW   0.75  16.0   NNW   15.1   16.4   15.2  1013.9  0.00   0.0   0.007   0.000   29.3    43   15.5   29.7   7.95 1.1481    117    1    100.0    5 
29/07/14   4:30   16.2   16.2   16.2    86   13.9   7.0     N   0.58  14.0     N   15.9   16.4   16.1  1014.1  0.00   0.0   0.007   0.000   29.3    43   15.5   29.7   7.95 1.1484    115    1    100.0    5 
29/07/14   4:35   16.2   16.2   16.2    86   13.8   7.0     N   0.58  13.0     N   15.8   16.3   15.9  1014.3  0.00   0.0   0.008   0.000   29.3    43   15.5   29.7   7.95 1.1485    117    1    100.0    5 
29/07/14   4:40   16.2   16.2   16.2    87   14.0   8.0   NNW   0.67  13.0   NNE   15.4   16.3   15.6  1014.2  0.00   0.0   0.008   0.000   29.3    43   15.5   29.7   7.95 1.1484    115    1    100.0    5 
29/07/14   4:45   16.2   16.2   16.2    87   14.0   5.0     N   0.42   9.0   NNW   16.2   16.3   16.3  1014.2  0.00   0.0   0.008   0.000   29.3    43   15.5   29.7   7.95 1.1484    116    1    100.0    5 
29/07/14   4:50   16.2   16.2   16.2    87   14.0   7.0   NNW   0.58  15.0   NNW   15.8   16.3   16.0  1014.1  0.00   0.0   0.008   0.000   29.3    43   15.4   29.7   7.96 1.1486    116    1    100.0    5 
29/07/14   4:55   16.2   16.2   16.2    87   14.0   8.0     N   0.67  14.0    NW   15.4   16.3   15.6  1014.3  0.00   0.0   0.008   0.000   29.3    43   15.4   29.7   7.96 1.1488    115    1    100.0    5 
29/07/14   5:00   16.2   16.2   16.1    87   14.0   8.0   NNW   0.67  14.0     N   15.4   16.3   15.6  1014.3  0.00   0.0   0.008   0.000   29.2    43   15.4   29.6   7.96 1.1491    117    1    100.0    5 
29/07/14   5:05   16.1   16.2   16.1    87   13.9   5.0   NNW   0.42  10.0   NNW   16.1   16.3   16.3  1014.3  0.00   0.0   0.008   0.000   29.2    43   15.4   29.6   7.96 1.1492    117    1    100.0    5 
29/07/14   5:10   16.1   16.1   16.1    87   13.9   7.0   NNW   0.58  12.0    NW   15.8   16.3   15.9  1014.3  0.00   0.0   0.008   0.000   29.2    43   15.4   29.6   7.96 1.1491    117    1    100.0    5 
29/07/14   5:15   16.1   16.1   16.1    87   13.9   7.0    NW   0.58  11.0    NW   15.7   16.2   15.9  1014.3  0.00   0.0   0.008   0.000   29.2    43   15.4   29.6   7.96 1.1491    117    1    100.0    5 
29/07/14   5:20   16.1   16.1   16.1    87   13.9   5.0   NNW   0.42  11.0   NNW   16.1   16.3   16.3  1014.4  0.00   0.0   0.008   0.000   29.2    43   15.4   29.6   7.96 1.1493    117    1    100.0    5 
29/07/14   5:25   16.1   16.1   16.1    88   14.1   7.0   NNW   0.58  12.0   NNW   15.8   16.3   15.9  1014.4  0.00   0.0   0.008   0.000   29.2    43   15.3   29.6   7.96 1.1495    116    1    100.0    5 
29/07/14   5:30   16.1   16.1   16.1    88   14.1   5.0   NNW   0.42   8.0   NNW   16.1   16.2   16.2  1014.5  0.00   0.0   0.008   0.000   29.2    43   15.3   29.6   7.96 1.1497    117    1    100.0    5 
29/07/14   5:35   16.1   16.1   16.1    88   14.1   7.0   NNW   0.58  13.0   NNW   15.8   16.3   15.9  1014.5  0.00   0.0   0.008   0.000   29.2    43   15.3   29.6   7.96 1.1496    116    1    100.0    5 
29/07/14   5:40   16.1   16.1   16.1    88   14.1   7.0   NNW   0.58  16.0    NW   15.8   16.3   15.9  1014.5  0.00   0.0   0.008   0.000   29.1    43   15.3   29.5   7.96 1.1499    117    1    100.0    5 
29/07/14   5:45   16.2   16.2   16.1    88   14.2   5.0    NW   0.42  10.0   NNW   16.2   16.3   16.3  1014.4  0.00   0.0   0.008   0.000   29.1    43   15.3   29.5   7.96 1.1497    117    1    100.0    5 
29/07/14   5:50   16.2   16.2   16.2    88   14.2   8.0    NW   0.67  12.0    NW   15.4   16.3   15.6  1014.4  0.00   0.0   0.008   0.000   29.1    43   15.3   29.5   7.96 1.1497    117    1    100.0    5 
29/07/14   5:55   16.2   16.2   16.2    88   14.2   7.0   NNW   0.58  13.0     N   15.9   16.4   16.1  1014.3  0.00   0.0   0.007   0.000   29.1    43   15.2   29.4   7.96 1.1500    117    1    100.0    5 
29/07/14   6:00   16.3   16.3   16.2    88   14.3   7.0    NW   0.58  12.0   NNW   16.0   16.4   16.2  1014.3  0.00   0.0   0.007   0.000   29.1    43   15.2   29.4   7.96 1.1499    117    1    100.0    5 
29/07/14   6:05   16.3   16.3   16.3    88   14.3   8.0   NNW   0.67  14.0     N   15.6   16.4   15.8  1014.4  0.00   0.0   0.007   0.000   29.1    43   15.2   29.4   7.96 1.1500    117    1    100.0    5 
29/07/14   6:10   16.3   16.3   16.3    88   14.3   9.0   NNW   0.75  18.0     N   15.1   16.4   15.3  1014.4  0.00   0.0   0.007   0.000   29.1    43   15.2   29.4   7.96 1.1501    117    1    100.0    5 
29/07/14   6:15   16.3   16.3   16.3    88   14.3   9.0   NNW   0.75  14.0   NNW   15.1   16.4   15.3  1014.4  0.00   0.0   0.007   0.000   29.0    43   15.2   29.4   7.97 1.1503    116    1    100.0    5 
29/07/14   6:20   16.3   16.3   16.2    88   14.3   8.0   NNW   0.67  17.0   NNW   15.6   16.4   15.8  1014.4  0.00   0.0   0.007   0.000   29.0    43   15.2   29.4   7.97 1.1503    117    1    100.0    5 
29/07/14   6:25   16.3   16.3   16.2    88   14.3   9.0   NNW   0.75  17.0     N   15.1   16.4   15.3  1014.2  0.00   0.0   0.007   0.000   28.9    43   15.1   29.4   7.97 1.1504    116    1    100.0    5 
29/07/14   6:30   16.3   16.3   16.2    88   14.3  11.0   NNW   0.92  20.0   NNW   14.3   16.4   14.5  1014.2  0.00   0.0   0.007   0.000   28.9    43   15.1   29.4   7.97 1.1504    116    1    100.0    5 
29/07/14   6:35   16.3   16.3   16.2    89   14.5  13.0     N   1.08  21.0   NNW   13.8   16.5   14.0  1014.1  0.00   0.0   0.007   0.000   28.9    43   15.1   29.4   7.97 1.1503    116    1    100.0    5 
29/07/14   6:40   16.3   16.3   16.2    89   14.5  13.0   NNW   1.08  21.0     N   13.8   16.5   14.0  1014.2  0.00   0.0   0.007   0.000   28.9    43   15.1   29.4   7.97 1.1504    116    1    100.0    5 
29/07/14   6:45   16.3   16.3   16.3    89   14.5  11.0     N   0.92  19.0     N   14.3   16.5   14.6  1014.3  0.00   0.0   0.007   0.000   28.9    43   15.1   29.3   7.97 1.1507    117    1    100.0    5 
29/07/14   6:50   16.3   16.3   16.3    88   14.3  11.0   NNW   0.92  21.0     N   14.3   16.4   14.5  1014.2  0.00   0.0   0.007   0.000   28.8    43   15.0   29.2   7.97 1.1510    117    1    100.0    5 
29/07/14   6:55   16.3   16.3   16.3    89   14.5   7.0     N   0.58  12.0   NNW   16.1   16.6   16.3  1014.4  0.00   0.0   0.007   0.000   28.8    43   15.0   29.2   7.97 1.1512    117    1    100.0    5 
29/07/14   7:00   16.4   16.4   16.3    89   14.6   6.0     N   0.50  13.0   NNW   16.3   16.6   16.6  1014.4  0.00   0.0   0.007   0.000   28.8    43   15.0   29.2   7.97 1.1512    117    1    100.0    5 
29/07/14   7:05   16.5   16.5   16.4    89   14.7   7.0     N   0.58  13.0     N   16.3   16.7   16.5  1014.5  0.00   0.0   0.006   0.000   28.8    43   15.0   29.2   7.97 1.1513    117    1    100.0    5 
29/07/14   7:10   16.6   16.6   16.5    89   14.8   6.0     N   0.50  11.0    NE   16.6   16.9   16.9  1014.5  0.00   0.0   0.006   0.000   28.8    43   15.0   29.2   7.97 1.1513    117    1    100.0    5 
29/07/14   7:15   16.7   16.7   16.6    88   14.7   6.0     N   0.50  11.0   NNE   16.7   16.9   16.9  1014.5  0.00   0.0   0.006   0.000   28.8    43   15.0   29.2   7.97 1.1512    115    1    100.0    5 
29/07/14   7:20   16.8   16.8   16.7    88   14.8   6.0     N   0.50  13.0     N   16.8   17.1   17.1  1014.5  0.00   0.0   0.005   0.000   28.8    43   15.0   29.2   7.97 1.1513    117    1    100.0    5 
29/07/14   7:25   16.8   16.8   16.8    88   14.8   7.0     N   0.58  11.0   NNW   16.7   17.1   17.0  1014.6  0.00   0.0   0.005   0.000   28.8    43   15.0   29.2   7.97 1.1514    115    1    100.0    5 
29/07/14   7:30   16.8   16.8   16.8    88   14.8   5.0   NNW   0.42   9.0     N   16.8   17.1   17.1  1014.7  0.00   0.0   0.005   0.000   28.8    43   15.0   29.2   7.97 1.1515    116    1    100.0    5 
29/07/14   7:35   16.8   16.9   16.8    87   14.7   7.0   NNW   0.58  14.0   NNW   16.7   17.1   16.9  1014.7  0.00   0.0   0.005   0.000   28.8    43   15.0   29.2   7.97 1.1518    117    1    100.0    5 
29/07/14   7:40   16.9   16.9   16.9    87   14.7   6.0     N   0.50  11.0    NW   16.9   17.2   17.2  1014.9  0.00   0.0   0.005   0.000   28.8    43   15.0   29.2   7.97 1.1520    116    1    100.0    5 
29/07/14   7:45   16.9   16.9   16.9    87   14.7   6.0   NNW   0.50  12.0   WNW   16.9   17.2   17.2  1014.9  0.00   0.0   0.005   0.000   28.8    43   15.0   29.2   7.97 1.1517    116    1    100.0    5 
29/07/14   7:50   16.9   16.9   16.9    87   14.8   4.0   NNW   0.33   8.0    NW   16.9   17.2   17.2  1015.0  0.00   0.0   0.005   0.000   28.8    43   15.0   29.2   7.97 1.1521    117    1    100.0    5 
29/07/14   7:55   16.9   16.9   16.9    87   14.8   4.0   NNW   0.33   7.0    NW   16.9   17.2   17.2  1015.0  0.00   0.0   0.005   0.000   28.8    43   15.0   29.2   7.97 1.1522    117    1    100.0    5 
29/07/14   8:00   16.9   16.9   16.9    86   14.6   5.0   NNW   0.42  11.0    NW   16.9   17.2   17.2  1015.0  0.00   0.0   0.005   0.000   28.8    43   15.0   29.2   7.97 1.1522    117    1    100.0    5 
29/07/14   8:05   17.0   17.0   16.9    86   14.6   3.0   NNW   0.25   9.0     N   17.0   17.3   17.3  1015.0  0.00   0.0   0.005   0.000   28.8    43   15.0   29.2   7.97 1.1522    117    1    100.0    5 
29/07/14   8:10   17.1   17.1   17.0    86   14.7   3.0   NNW   0.25   7.0   NNW   17.1   17.3   17.3  1015.0  0.00   0.0   0.004   0.000   28.8    43   15.0   29.2   7.97 1.1522    117    1    100.0    5 
29/07/14   8:15   17.1   17.1   17.0    86   14.7   4.0   NNE   0.33   8.0   NNW   17.1   17.4   17.4  1015.1  0.00   0.0   0.004   0.000   28.8    43   15.0   29.2   7.97 1.1522    116    1    100.0    5 
29/07/14   8:20   17.2   17.2   17.1    86   14.8   4.0     N   0.33   8.0     N   17.2   17.4   17.4  1015.1  0.00   0.0   0.004   0.000   28.8    43   15.0   29.2   7.97 1.1523    117    1    100.0    5 
29/07/14   8:25   17.2   17.2   17.2    86   14.9   4.0   NNE   0.33   9.0     N   17.2   17.5   17.5  1015.1  0.00   0.0   0.004   0.000   28.8    43   15.0   29.2   7.97 1.1523    117    1    100.0    5 
29/07/14   8:30   17.3   17.3   17.2    86   14.9   6.0     N   0.50  12.0   NNE   17.3   17.6   17.6  1015.1  0.00   0.0   0.004   0.000   28.8    43   15.0   29.2   7.97 1.1523    117    1    100.0    5 
29/07/14   8:35   17.4   17.4   17.3    85   14.8   7.0     N   0.58  11.0   NNE   17.3   17.7   17.6  1015.0  0.00   0.0   0.003   0.000   28.8    43   15.0   29.2   7.97 1.1522    115    1    100.0    5 
29/07/14   8:40   17.5   17.5   17.4    85   14.9   7.0   NNE   0.58  11.0   NNE   17.5   17.8   17.8  1015.1  0.00   0.0   0.003   0.000   28.7    43   14.9   29.1   7.98 1.1525    116    1    100.0    5 
29/07/14   8:45   17.6   17.6   17.5    84   14.9   6.0     N   0.50  11.0   NNE   17.6   17.9   17.9  1015.2  0.00   0.0   0.003   0.000   28.7    43   14.9   29.1   7.98 1.1526    117    1    100.0    5 
29/07/14   8:50   17.7   17.7   17.6    84   14.9   6.0     N   0.50   9.0     N   17.7   18.0   18.0  1015.2  0.00   0.0   0.002   0.000   28.7    43   14.9   29.1   7.98 1.1526    116    1    100.0    5 
29/07/14   8:55   17.8   17.8   17.7    84   15.0   5.0   NNW   0.42   8.0   NNW   17.8   18.1   18.1  1015.0  0.00   0.0   0.002   0.000   28.7    43   14.9   29.1   7.98 1.1525    117    1    100.0    5 
29/07/14   9:00   17.9   17.9   17.8    84   15.1   5.0     N   0.42  11.0     N   17.9   18.2   18.2  1015.1  0.00   0.0   0.002   0.000   28.7    43   14.9   29.1   7.98 1.1525    117    1    100.0    5 
29/07/14   9:05   17.9   17.9   17.9    83   15.0   5.0     N   0.42  10.0     N   17.9   18.3   18.3  1015.1  0.00   0.0   0.001   0.000   28.7    43   14.9   28.9   7.98 1.1528    116    1    100.0    5 
29/07/14   9:10   17.9   17.9   17.9    83   15.0   6.0   NNW   0.50  10.0   NNW   17.9   18.3   18.3  1015.1  0.00   0.0   0.001   0.000   28.7    43   14.9   28.9   7.98 1.1528    116    1    100.0    5 
29/07/14   9:15   18.1   18.1   17.9    83   15.1   5.0   NNW   0.42   9.0     N   18.1   18.4   18.4  1015.0  0.00   0.0   0.001   0.000   28.6    43   14.8   28.9   7.98 1.1530    116    1    100.0    5 
29/07/14   9:20   18.2   18.2   18.1    82   15.1   5.0   NNW   0.42   8.0   NNW   18.2   18.6   18.6  1015.0  0.00   0.0   0.000   0.000   28.6    43   14.8   28.9   7.98 1.1530    117    1    100.0    5 
29/07/14   9:25   18.3   18.3   18.2    82   15.2   4.0     N   0.33   9.0     N   18.3   18.7   18.7  1015.0  0.00   0.0   0.000   0.000   28.6    43   14.8   28.9   7.98 1.1530    117    1    100.0    5 
29/07/14   9:30   18.6   18.6   18.4    82   15.4   4.0   NNE   0.33   8.0     N   18.6   19.0   19.0  1015.0  0.00   0.0   0.000   0.001   28.6    43   14.8   28.9   7.98 1.1530    117    1    100.0    5 
29/07/14   9:35   18.6   18.6   18.6    81   15.3   6.0     N   0.50  10.0   NNW   18.6   19.1   19.1  1014.9  0.00   0.0   0.000   0.001   28.6    43   14.8   28.8   7.98 1.1532    117    1    100.0    5 
29/07/14   9:40   18.7   18.7   18.6    81   15.3   6.0   NNW   0.50   9.0   NNW   18.7   19.1   19.1  1014.9  0.00   0.0   0.000   0.001   28.6    43   14.8   28.8   7.98 1.1532    117    1    100.0    5 
29/07/14   9:45   19.1   19.1   18.7    81   15.7   6.0     N   0.50  11.0    NE   19.1   19.6   19.6  1014.9  0.00   0.0   0.000   0.003   28.6    43   14.8   28.8   7.98 1.1532    116    1    100.0    5 
29/07/14   9:50   19.5   19.5   19.1    80   16.0   6.0   NNW   0.50  12.0     N   19.5   20.1   20.1  1014.8  0.00   0.0   0.000   0.004   28.6    43   14.8   28.8   7.98 1.1530    117    1    100.0    5 
29/07/14   9:55   19.7   19.7   19.5    78   15.8   8.0   NNW   0.67  13.0   NNW   19.4   20.3   19.9  1014.9  0.00   0.0   0.000   0.005   28.5    43   14.7   28.7   7.98 1.1534    116    1    100.0    5 
29/07/14  10:00   19.7   19.7   19.7    77   15.6   7.0   NNW   0.58  12.0   NNW   19.7   20.3   20.3  1014.9  0.00   0.0   0.000   0.005   28.5    43   14.7   28.7   7.98 1.1534    116    1    100.0    5 
29/07/14  10:05   19.7   19.7   19.7    76   15.4   6.0     N   0.50  11.0   NNE   19.7   20.2   20.2  1014.8  0.00   0.0   0.000   0.005   28.5    43   14.7   28.7   7.98 1.1533    117    1    100.0    5 
29/07/14  10:10   19.7   19.7   19.7    75   15.2   8.0     N   0.67  13.0   NNE   19.4   20.2   19.8  1014.8  0.00   0.0   0.000   0.005   28.4    43   14.7   28.6   7.99 1.1536    114    1    100.0    5 
29/07/14  10:15   19.8   19.8   19.7    74   15.0   8.0     N   0.67  13.0     N   19.4   20.2   19.8  1014.9  0.00   0.0   0.000   0.005   28.4    43   14.7   28.6   7.99 1.1536    118    1    100.0    5 
29/07/14  10:20   19.8   19.8   19.7    75   15.2   8.0   NNE   0.67  15.0   NNE   19.4   20.2   19.8  1014.8  0.00   0.0   0.000   0.005   28.4    43   14.7   28.6   7.99 1.1536    117    1    100.0    5 
29/07/14  10:25   19.9   19.9   19.8    74   15.1   8.0   NNE   0.67  13.0   NNE   19.5   20.3   19.9  1014.8  0.00   0.0   0.000   0.005   28.4    43   14.6   28.5   7.99 1.1538    117    1    100.0    5 
29/07/14  10:30   20.3   20.3   19.9    75   15.7   6.0     N   0.50   9.0     N   20.3   20.8   20.8  1014.8  0.00   0.0   0.000   0.007   28.4    43   14.6   28.5   7.99 1.1538    117    1    100.0    5 
29/07/14  10:35   20.6   20.6   20.3    73   15.5   8.0     N   0.67  13.0    NW   20.2   21.0   20.6  1014.8  0.00   0.0   0.000   0.008   28.4    43   14.6   28.5   7.99 1.1539    116    1    100.0    5 
29/07/14  10:40   20.6   20.6   20.6    71   15.1   6.0    NW   0.50  10.0   WNW   20.6   20.8   20.8  1014.9  0.00   0.0   0.000   0.008   28.3    43   14.6   28.4   7.99 1.1543    116    1    100.0    5 
29/07/14  10:45   20.6   20.6   20.6    71   15.1   9.0   NNW   0.75  15.0   NNW   19.8   20.8   20.1  1015.0  0.00   0.0   0.000   0.008   28.4    44   15.0   28.6   8.15 1.1536    117    1    100.0    5 
29/07/14  10:50   20.6   20.6   20.5    71   15.1   7.0   NNW   0.58  12.0   NNW   20.6   20.8   20.8  1015.0  0.00   0.0   0.000   0.008   28.4    44   15.0   28.7   8.15 1.1533    116    1    100.0    5 
29/07/14  10:55   20.6   20.6   20.5    72   15.3   6.0     N   0.50  11.0   NNW   20.6   20.9   20.9  1015.0  0.00   0.0   0.000   0.008   28.4    44   15.0   28.7   8.15 1.1533    116    1    100.0    5 
29/07/14  11:00   20.7   20.7   20.6    72   15.4   6.0   NNW   0.50  11.0   NNW   20.7   21.0   21.0  1014.9  0.00   0.0   0.000   0.008   28.5    44   15.1   28.8   8.15 1.1529    117    1    100.0    5 
29/07/14  11:05   20.9   20.9   20.7    72   15.7   7.0   NNW   0.58  12.0   NNW   20.9   21.2   21.2  1014.9  0.00   0.0   0.000   0.009   28.5    44   15.1   28.8   8.15 1.1529    116    1    100.0    5 
29/07/14  11:10   21.2   21.2   20.9    70   15.5   7.0   NNW   0.58  11.0   NNW   21.2   21.2   21.2  1014.9  0.00   0.0   0.000   0.010   28.6    44   15.1   28.9   8.15 1.1527    117    1    100.0    5 
29/07/14  11:15   21.3   21.3   21.2    69   15.4   7.0   NNW   0.58  12.0   NNW   21.3   21.3   21.3  1015.0  0.00   0.0   0.000   0.010   28.6    44   15.1   28.9   8.15 1.1528    116    1    100.0    5 
29/07/14  11:20   21.3   21.3   21.3    69   15.4   7.0     N   0.58  13.0     N   21.3   21.3   21.3  1014.9  0.00   0.0   0.000   0.010   28.6    44   15.2   28.9   8.15 1.1524    118    1    100.0    5 
29/07/14  11:25   21.4   21.4   21.3    70   15.7   6.0     N   0.50  14.0     N   21.4   21.6   21.6  1014.9  0.00   0.0   0.000   0.011   28.7    44   15.2   29.1   8.15 1.1521    115    1    100.0    5 
29/07/14  11:30   21.7   21.7   21.4    69   15.8   8.0     N   0.67  14.0     N   21.4   21.9   21.6  1014.9  0.00   0.0   0.000   0.012   28.7    44   15.2   29.1   8.15 1.1521    116    1    100.0    5 
29/07/14  11:35   22.2   22.2   21.8    69   16.2   7.0   NNE   0.58  13.0    NE   22.2   22.5   22.5  1014.9  0.00   0.0   0.000   0.013   28.7    44   15.3   29.2   8.15 1.1519    116    1    100.0    5 
29/07/14  11:40   22.4   22.4   22.2    66   15.8   5.0   NNW   0.42  11.0   NNW   22.4   22.7   22.7  1015.0  0.00   0.0   0.000   0.014   28.8    44   15.3   29.2   8.15 1.1516    116    1    100.0    5 
29/07/14  11:45   22.7   22.7   22.4    64   15.6   7.0   NNW   0.58  14.0    NW   22.7   23.1   23.1  1014.9  0.00   0.0   0.000   0.015   28.8    44   15.4   29.3   8.15 1.1513    116    1    100.0    5 
29/07/14  11:50   23.1   23.1   22.7    62   15.4   7.0   NNW   0.58  11.0   NNW   23.1   23.4   23.4  1014.9  0.00   0.0   0.000   0.016   28.8    44   15.4   29.3   8.15 1.1513    116    1    100.0    5 
29/07/14  11:55   23.2   23.2   23.1    60   15.0  10.0   NNW   0.83  15.0   NNW   22.1   23.6   22.4  1015.0  0.00   0.0   0.000   0.017   28.9    44   15.4   29.4   8.15 1.1511    117    1    100.0    5 
29/07/14  12:00   23.4   23.4   23.2    59   14.9   7.0   NNW   0.58  13.0   NNW   23.4   23.7   23.7  1014.9  0.00   0.0   0.000   0.018   28.9    44   15.5   29.4   8.15 1.1507    116    1    100.0    5 
29/07/14  12:05   23.6   23.6   23.4    58   14.9   7.0   NNW   0.58  13.0    NW   23.6   23.9   23.9  1014.9  0.00   0.0   0.000   0.018   29.0    44   15.5   29.5   8.15 1.1505    117    1    100.0    5 
29/07/14  12:10   23.7   23.7   23.6    58   14.9   9.0     N   0.75  14.0     N   22.9   24.0   23.3  1014.8  0.00   0.0   0.000   0.019   29.1    44   15.6   29.6   8.15 1.1501    117    1    100.0    5 
29/07/14  12:15   23.8   23.8   23.7    57   14.8   9.0   NNE   0.75  14.0   NNE   23.1   24.2   23.4  1014.8  0.00   0.0   0.000   0.019   29.1    44   15.6   29.6   8.15 1.1498    117    1    100.0    5 
29/07/14  12:20   24.2   24.2   23.8    57   15.1   8.0     N   0.67  12.0   NNW   23.9   24.5   24.2  1014.8  0.00   0.0   0.000   0.020   29.1    44   15.6   29.6   8.15 1.1497    117    1    100.0    5 
29/07/14  12:25   24.3   24.3   24.2    56   15.0   8.0     N   0.67  14.0   NNW   24.1   24.6   24.3  1014.7  0.00   0.0   0.000   0.021   29.2    44   15.7   29.7   8.15 1.1494    117    1    100.0    5 
29/07/14  12:30   24.6   24.6   24.3    55   14.9   7.0     N   0.58  11.0   NNE   24.6   24.7   24.7  1014.7  0.00   0.0   0.000   0.022   29.2    44   15.7   29.7   8.15 1.1491    117    1    100.0    5 
29/07/14  12:35   24.7   24.7   24.6    52   14.2   9.0     N   0.75  16.0     N   24.1   24.8   24.1  1014.6  0.00   0.0   0.000   0.022   29.3    44   15.8   29.8   8.15 1.1488    117    1    100.0    5 
29/07/14  12:40   24.8   24.8   24.7    54   14.9   8.0   NNW   0.67  14.0   NNW   24.6   24.9   24.7  1014.7  0.00   0.0   0.000   0.023   29.3    44   15.8   29.8   8.15 1.1485    117    1    100.0    5 
29/07/14  12:45   25.1   25.1   24.9    56   15.7   8.0     N   0.67  14.0     N   24.8   25.3   25.1  1014.6  0.00   0.0   0.000   0.024   29.4    44   15.9   29.8   8.15 1.1482    114    1    100.0    5 
29/07/14  12:50   25.3   25.3   25.1    50   14.2  10.0   NNW   0.83  15.0   NNW   24.3   25.3   24.3  1014.7  0.00   0.0   0.000   0.024   29.4    44   15.9   29.9   8.15 1.1480    116    1    100.0    5 
29/07/14  12:55   25.5   25.5   25.3    54   15.5   8.0   NNW   0.67  14.0   NNW   25.2   25.7   25.4  1014.7  0.00   0.0   0.000   0.025   29.4    44   15.9   29.9   8.15 1.1480    117    1    100.0    5 
29/07/14  13:00   25.5   25.6   25.5    48   13.7   8.0    NW   0.67  14.0    NW   25.2   25.4   25.1  1014.6  0.00   0.0   0.000   0.025   29.5    44   16.0   29.9   8.15 1.1476    116    1    100.0    5 
29/07/14  13:05   25.6   25.6   25.4    52   15.0   7.0   NNW   0.58  12.0    NW   25.6   25.7   25.7  1014.6  0.00   0.0   0.000   0.025   29.6    44   16.0   30.0   8.15 1.1474    117    1    100.0    5 
29/07/14  13:10   25.7   25.8   25.6    47   13.6   9.0   NNW   0.75  14.0    NW   25.1   25.6   24.9  1014.6  0.00   0.0   0.000   0.026   29.6    44   16.1   30.1   8.14 1.1471    116    1    100.0    5 
29/07/14  13:15   25.7   25.7   25.7    50   14.5   9.0   NNW   0.75  14.0    NW   25.0   25.7   25.0  1014.6  0.00   0.0   0.000   0.025   29.7    44   16.1   30.2   8.14 1.1468    117    1    100.0    5 
29/07/14  13:20   25.8   25.8   25.7    49   14.3   9.0   NNW   0.75  13.0     N   25.1   25.8   25.1  1014.5  0.00   0.0   0.000   0.026   29.7    44   16.2   30.2   8.14 1.1463    117    1    100.0    5 
29/07/14  13:25   26.1   26.1   25.8    52   15.5   7.0     N   0.58  13.0     N   26.1   26.3   26.3  1014.5  0.00   0.0   0.000   0.027   29.8    44   16.2   30.3   8.14 1.1461    118    1    100.0    5 
29/07/14  13:30   26.5   26.5   26.2    50   15.2   6.0     N   0.50  13.0   NNE   26.5   26.6   26.6  1014.5  0.00   0.0   0.000   0.028   29.8    44   16.3   30.3   8.14 1.1459    117    1    100.0    5 
29/07/14  13:35   26.9   26.9   26.5    51   15.9   5.0     N   0.42  10.0     N   26.9   27.1   27.1  1014.4  0.00   0.0   0.000   0.030   29.9    44   16.3   30.4   8.13 1.1455    116    1    100.0    5 
29/07/14  13:40   27.2   27.2   26.9    50   15.8   6.0   NNW   0.50   9.0   NNW   27.2   27.3   27.3  1014.4  0.00   0.0   0.000   0.031   29.9    44   16.4   30.4   8.13 1.1452    117    1    100.0    5 
29/07/14  13:45   27.3   27.3   27.2    45   14.3   8.0     N   0.67  13.0   NNW   27.1   27.1   26.8  1014.4  0.00   0.0   0.000   0.031   30.0    44   16.4   30.5   8.13 1.1449    116    1    100.0    5 
29/07/14  13:50   27.3   27.3   27.3    47   15.0   9.0     N   0.75  15.0     N   26.7   27.2   26.7  1014.4  0.00   0.0   0.000   0.031   30.1    44   16.5   30.6   8.13 1.1446    116    1    100.0    5 
29/07/14  13:55   27.3   27.3   27.3    48   15.4   8.0   NNE   0.67  12.0     N   27.1   27.3   27.1  1014.4  0.00   0.0   0.000   0.031   30.1    44   16.5   30.6   8.13 1.1446    117    1    100.0    5 
29/07/14  14:00   27.2   27.3   27.2    44   13.9   7.0    NW   0.58  13.0    NW   27.2   26.9   26.9  1014.4  0.00   0.0   0.000   0.031   30.2    44   16.6   30.8   8.12 1.1440    117    1    100.0    5 
29/07/14  14:05   27.2   27.2   27.1    44   13.9   8.0   NNW   0.67  13.0   NNW   26.9   26.9   26.7  1014.4  0.00   0.0   0.000   0.031   30.2    44   16.6   30.8   8.12 1.1441    117    1    100.0    5 
29/07/14  14:10   27.2   27.2   27.1    43   13.6   8.0   NNW   0.67  14.0   NNW   27.0   26.9   26.7  1014.3  0.00   0.0   0.000   0.031   30.2    44   16.6   30.8   8.12 1.1436    117    1    100.0    5 
29/07/14  14:15   27.3   27.3   27.2    47   15.0   8.0   NNE   0.67  13.0   NNE   27.1   27.3   27.1  1014.3  0.00   0.0   0.000   0.031   30.3    44   16.7   31.0   8.12 1.1431    116    1    100.0    5 
29/07/14  14:20   27.3   27.3   27.3    44   14.0   7.0   NNE   0.58  14.0   NNE   27.3   27.1   27.1  1014.3  0.00   0.0   0.000   0.031   30.4    43   16.4   30.9   7.95 1.1433    117    1    100.0    5 
29/07/14  14:25   27.4   27.4   27.3    43   13.7   7.0    NW   0.58  12.0   NNW   27.4   27.1   27.1  1014.3  0.00   0.0   0.000   0.031   30.4    43   16.4   30.9   7.95 1.1433    117    1    100.0    5 
29/07/14  14:30   27.4   27.4   27.4    43   13.8   7.0   NNW   0.58  11.0   NNW   27.4   27.2   27.2  1014.3  0.00   0.0   0.000   0.032   30.5    43   16.5   31.1   7.95 1.1428    117    1    100.0    5 
29/07/14  14:35   27.6   27.6   27.4    43   13.9   5.0    NW   0.42  12.0   NNW   27.6   27.3   27.3  1014.3  0.00   0.0   0.000   0.032   30.6    43   16.6   31.2   7.95 1.1424    117    1    100.0    5 
29/07/14  14:40   27.8   27.8   27.6    43   14.1   7.0   NNW   0.58  12.0    NW   27.8   27.6   27.6  1014.2  0.00   0.0   0.000   0.033   30.6    43   16.6   31.2   7.95 1.1421    116    1    100.0    5 
29/07/14  14:45   28.0   28.0   27.8    47   15.6   5.0   NNE   0.42   9.0   NNE   28.0   28.2   28.2  1014.2  0.00   0.0   0.000   0.034   30.7    43   16.7   31.3   7.95 1.1418    116    1    100.0    5 
29/07/14  14:50   28.2   28.2   28.0    44   14.8   4.0   NNE   0.33  10.0     N   28.2   28.3   28.3  1014.1  0.00   0.0   0.000   0.034   30.7    43   16.7   31.3   7.95 1.1414    116    1    100.0    5 
29/07/14  14:55   28.4   28.4   28.2    44   15.0   7.0     N   0.58  12.0     N   28.4   28.6   28.6  1014.1  0.00   0.0   0.000   0.035   30.8    43   16.8   31.4   7.95 1.1409    117    1    100.0    5 
29/07/14  15:00   28.7   28.7   28.4    40   13.7   5.0   NNW   0.42   9.0    NW   28.7   28.7   28.7  1014.1  0.00   0.0   0.000   0.036   30.9    43   16.9   31.5   7.95 1.1405    114    1    100.0    5 
29/07/14  15:05   28.6   28.7   28.6    42   14.4   4.0   NNW   0.33  10.0    NW   28.6   28.7   28.7  1014.0  0.00   0.0   0.000   0.035   30.9    43   16.9   31.6   7.95 1.1402    117    1    100.0    5 
29/07/14  15:10   28.6   28.6   28.6    42   14.4   6.0   NNW   0.50  11.0     N   28.6   28.8   28.8  1014.0  0.00   0.0   0.000   0.036   31.0    43   17.0   31.6   7.95 1.1399    117    1    100.0    5 
29/07/14  15:15   28.7   28.7   28.6    41   14.2   2.0   NNW   0.17   9.0     N   28.7   28.9   28.9  1014.0  0.00   0.0   0.000   0.036   31.1    43   17.0   31.7   7.95 1.1396    117    1    100.0    5 
29/07/14  15:20   28.7   28.8   28.7    41   14.2   7.0    NW   0.58  13.0    NW   28.7   28.9   28.9  1013.9  0.00   0.0   0.000   0.036   31.1    43   17.1   31.7   7.95 1.1393    116    1    100.0    5 
29/07/14  15:25   28.6   28.8   28.6    41   14.0   4.0     W   0.33   9.0     W   28.6   28.6   28.6  1013.8  0.00   0.0   0.000   0.035   31.2    43   17.1   31.8   7.95 1.1389    116    1    100.0    5 
29/07/14  15:30   28.2   28.5   28.2    42   14.1   4.0     W   0.33   9.0    NW   28.2   28.2   28.2  1013.8  0.00   0.0   0.000   0.034   31.3    43   17.2   32.1   7.95 1.1383    118    1    100.0    5 
29/07/14  15:35   27.9   28.2   27.9    44   14.5   7.0   NNW   0.58  11.0   NNE   27.9   27.8   27.8  1013.9  0.00   0.0   0.000   0.033   31.3    43   17.3   32.2   7.95 1.1381    117    1    100.0    5 
29/07/14  15:40   27.3   27.8   27.3    47   15.0   6.0     N   0.50   9.0   NNW   27.3   27.3   27.3  1013.9  0.00   0.0   0.000   0.031   31.3    43   17.3   32.2   7.95 1.1381    116    1    100.0    5 
29/07/14  15:45   26.2   27.3   26.2    55   16.5   5.0    SW   0.42   9.0     W   26.2   26.6   26.6  1014.0  0.00   0.0   0.000   0.027   31.4    43   17.3   32.3   7.95 1.1379    117    1    100.0    5 
29/07/14  15:50   24.3   26.2   24.3    63   16.8   5.0   WSW   0.42   6.0   WSW   24.3   24.8   24.8  1014.0  0.00   0.0   0.000   0.021   31.4    43   17.4   32.4   7.95 1.1377    117    1    100.0    5 
29/07/14  15:55   23.3   24.2   23.3    69   17.3   4.0   WSW   0.33   7.0   WSW   23.3   24.2   24.2  1014.0  0.00   0.0   0.000   0.017   31.5    43   17.4   32.5   7.95 1.1374    117    1    100.0    5 
29/07/14  16:00   22.7   23.3   22.7    70   17.0   9.0    SW   0.75  14.0    SW   21.9   23.3   22.6  1013.8  0.00   0.0   0.000   0.015   31.6    43   17.5   32.6   7.95 1.1369    117    1    100.0    5 
29/07/14  16:05   22.3   22.7   22.3    74   17.4  11.0    SW   0.92  14.0    SW   20.8   22.8   21.4  1013.8  0.00   0.0   0.000   0.014   31.6    43   17.5   32.6   7.95 1.1369    117    1    100.0    5 
29/07/14  16:10   22.2   22.3   22.2    77   17.9   9.0    SW   0.75  12.0    SW   21.4   22.8   22.0  1013.9  0.00   0.0   0.000   0.013   31.6    43   17.5   32.7   7.95 1.1367    117    1    100.0    5 
29/07/14  16:15   21.9   22.2   21.9    78   17.9  10.0    SW   0.83  13.0    SW   20.7   22.6   21.4  1013.8  0.00   0.0   0.000   0.012   31.6    44   17.9   32.9   8.07 1.1361    117    1    100.0    5 
29/07/14  16:20   21.8   21.9   21.7    78   17.8   9.0    SW   0.75  11.0    SW   21.0   22.4   21.6  1013.8  0.00   0.0   0.000   0.012   31.6    44   17.8   32.8   8.07 1.1364    116    1    100.0    5 
29/07/14  16:25   21.6   21.8   21.6    79   17.8   8.0    SW   0.67  11.0    SW   21.3   22.3   22.0  1013.8  0.00   0.0   0.000   0.011   31.6    45   18.2   33.1   8.17 1.1358    116    1    100.0    5 
29/07/14  16:30   21.6   21.7   21.6    79   17.8   9.0    SW   0.75  12.0    SW   20.8   22.3   21.5  1013.7  0.00   0.0   0.000   0.011   31.6    45   18.2   33.1   8.17 1.1357    114    1    100.0    5 
29/07/14  16:35   21.6   21.7   21.6    78   17.6   9.0    SW   0.75  12.0    SW   20.8   22.2   21.4  1013.7  0.00   0.0   0.000   0.011   31.6    45   18.2   33.1   8.17 1.1357    118    1    100.0    5 
29/07/14  16:40   21.8   21.8   21.6    79   18.0   9.0    SW   0.75  13.0    SW   21.1   22.5   21.7  1013.7  0.00   0.0   0.000   0.012   31.6    45   18.2   33.1   8.17 1.1357    117    1    100.0    5 
29/07/14  16:45   21.9   21.9   21.8    79   18.1   9.0    SW   0.75  12.0    SW   21.2   22.7   21.9  1013.7  0.00   0.0   0.000   0.013   31.6    45   18.2   33.1   8.17 1.1357    117    1    100.0    5 
29/07/14  16:50   21.9   22.0   21.9    78   17.9   9.0    SW   0.75  13.0    SW   21.2   22.6   21.8  1013.6  0.00   0.0   0.000   0.013   31.6    45   18.2   33.1   8.17 1.1356    117    1    100.0    5 
29/07/14  16:55   21.9   21.9   21.8    80   18.3   9.0   WSW   0.75  11.0    SW   21.2   22.7   21.9  1013.6  0.00   0.0   0.000   0.013   31.6    45   18.2   33.2   8.17 1.1354    117    1    100.0    5 
29/07/14  17:00   22.1   22.1   21.9    80   18.4   9.0    SW   0.75  12.0   WSW   21.3   22.8   22.1  1013.5  0.00   0.0   0.000   0.013   31.6    45   18.2   33.2   8.17 1.1352    116    1    100.0    5 
29/07/14  17:05   22.1   22.1   22.0    78   18.0  10.0   WSW   0.83  13.0   WSW   20.9   22.7   21.6  1013.5  0.00   0.0   0.000   0.013   31.7    45   18.3   33.3   8.17 1.1350    117    1    100.0    5 
29/07/14  17:10   22.1   22.1   21.9    79   18.2  10.0   WSW   0.83  13.0   WSW   20.9   22.8   21.6  1013.4  0.00   0.0   0.000   0.013   31.7    45   18.3   33.3   8.17 1.1349    117    1    100.0    5 
29/07/14  17:15   22.1   22.1   22.0    79   18.2  10.0   WSW   0.83  12.0   WSW   20.9   22.8   21.6  1013.3  0.00   0.0   0.000   0.013   31.7    45   18.3   33.3   8.17 1.1345    116    1    100.0    5 
29/07/14  17:20   22.1   22.2   22.1    79   18.2   9.0   WSW   0.75  12.0   WSW   21.3   22.8   22.0  1013.3  0.00   0.0   0.000   0.013   31.7    45   18.3   33.3   8.17 1.1345    117    1    100.0    5 
29/07/14  17:25   22.1   22.1   22.0    79   18.2  10.0   WSW   0.83  12.0   WSW   20.9   22.8   21.6  1013.4  0.00   0.0   0.000   0.013   31.8    45   18.4   33.4   8.17 1.1342    115    1    100.0    5 
29/07/14  17:30   22.2   22.2   22.1    79   18.4   9.0   WSW   0.75  11.0   WSW   21.4   22.9   22.1  1013.4  0.00   0.0   0.000   0.013   31.8    45   18.4   33.4   8.17 1.1342    117    1    100.0    5 
29/07/14  17:35   22.1   22.1   22.1    79   18.2   8.0   WSW   0.67  10.0   WSW   21.8   22.8   22.5  1013.3  0.00   0.0   0.000   0.013   31.8    45   18.4   33.5   8.16 1.1338    118    1    100.0    5 
29/07/14  17:40   22.2   22.2   22.1    80   18.6   7.0   WSW   0.58   9.0    SW   22.2   23.0   23.0  1013.2  0.00   0.0   0.000   0.014   31.8    45   18.4   33.5   8.16 1.1338    117    1    100.0    5 
29/07/14  17:45   22.2   22.2   22.2    79   18.4   8.0   WSW   0.67  11.0   WSW   21.9   22.9   22.6  1013.2  0.00   0.0   0.000   0.013   31.9    45   18.5   33.6   8.16 1.1335    117    1    100.0    5 
29/07/14  17:50   22.2   22.3   22.2    79   18.4   8.0   WSW   0.67  10.0   WSW   21.9   22.9   22.7  1013.2  0.00   0.0   0.000   0.014   31.9    46   18.9   33.9   8.36 1.1327    117    1    100.0    5 
29/07/14  17:55   22.3   22.3   22.2    79   18.5   7.0   WSW   0.58  10.0    SW   22.3   23.1   23.1  1013.2  0.00   0.0   0.000   0.014   31.9    46   18.9   33.9   8.36 1.1327    116    1    100.0    5 
29/07/14  18:00   22.2   22.3   22.2    80   18.6   9.0   WSW   0.75  12.0   WSW   21.4   23.0   22.2  1013.2  0.00   0.0   0.000   0.014   32.1    46   19.0   34.0   8.36 1.1320    117    1    100.0    5 
29/07/14  18:05   22.4   22.4   22.2    79   18.6   8.0   WSW   0.67  12.0   WSW   22.1   23.2   22.9  1013.1  0.00   0.0   0.000   0.014   32.1    45   18.6   33.8   8.16 1.1325    115    1    100.0    5 
29/07/14  18:10   22.4   22.4   22.4    78   18.4  10.0   WSW   0.83  13.0   WSW   21.3   23.2   22.1  1013.1  0.00   0.0   0.000   0.014   32.1    45   18.7   33.9   8.15 1.1323    116    1    100.0    5 
29/07/14  18:15   22.3   22.5   22.3    77   18.1  10.0   WSW   0.83  13.0   WSW   21.2   23.1   21.9  1013.0  0.00   0.0   0.000   0.014   32.2    45   18.7   34.0   8.15 1.1319    117    1    100.0    5 
29/07/14  18:20   22.3   22.4   22.3    78   18.3  10.0   WSW   0.83  12.0   WSW   21.2   23.1   21.9  1013.0  0.00   0.0   0.000   0.014   32.2    45   18.8   34.1   8.15 1.1316    117    1    100.0    5 
29/07/14  18:25   22.2   22.4   22.2    79   18.4   9.0   WSW   0.75  12.0   WSW   21.4   22.9   22.2  1013.1  0.00   0.0   0.000   0.014   32.3    45   18.8   34.2   8.15 1.1313    117    1    100.0    5 
29/07/14  18:30   22.0   22.2   22.0    79   18.2  10.0   WSW   0.83  12.0   WSW   20.8   22.7   21.6  1013.1  0.00   0.0   0.000   0.013   32.3    45   18.9   34.3   8.15 1.1311    117    1    100.0    5 
29/07/14  18:35   22.1   22.1   22.0    79   18.3   9.0   WSW   0.75  13.0   WSW   21.3   22.8   22.1  1013.1  0.00   0.0   0.000   0.013   32.4    45   18.9   34.3   8.15 1.1308    117    1    100.0    5 
29/07/14  18:40   22.1   22.1   22.1    79   18.3   9.0   WSW   0.75  11.0   WSW   21.3   22.8   22.1  1013.0  0.00   0.0   0.000   0.013   32.4    45   19.0   34.4   8.15 1.1304    118    1    100.0    5 
29/07/14  18:45   22.1   22.1   22.1    79   18.3   9.0   WSW   0.75  14.0   WSW   21.3   22.8   22.1  1013.0  0.00   0.0   0.000   0.013   32.4    45   19.0   34.4   8.15 1.1304    117    1    100.0    5 
29/07/14  18:50   21.9   22.1   21.9    79   18.1  10.0   WSW   0.83  13.0   WSW   20.8   22.7   21.5  1013.0  0.00   0.0   0.000   0.013   32.5    45   19.0   34.6   8.15 1.1301    117    1    100.0    5 
29/07/14  18:55   21.9   21.9   21.9    80   18.3   9.0   WSW   0.75  13.0   WSW   21.1   22.6   21.8  1013.1  0.00   0.0   0.000   0.012   32.5    45   19.0   34.6   8.15 1.1302    116    1    100.0    5 
29/07/14  19:00   21.9   21.9   21.9    80   18.3   9.0   WSW   0.75  12.0   WSW   21.1   22.6   21.8  1013.0  0.00   0.0   0.000   0.012   32.6    45   19.1   34.7   8.15 1.1298    117    1    100.0    5 
29/07/14  19:05   21.9   21.9   21.8    80   18.3   9.0   WSW   0.75  12.0   WSW   21.1   22.6   21.8  1013.0  0.00   0.0   0.000   0.012   32.6    45   19.1   34.8   8.15 1.1295    117    1    100.0    5 
29/07/14  19:10   21.8   21.9   21.8    80   18.2   9.0   WSW   0.75  12.0   WSW   21.1   22.6   21.8  1013.0  0.00   0.0   0.000   0.012   32.6    45   19.1   34.8   8.15 1.1296    117    1    100.0    5 
29/07/14  19:15   21.9   21.9   21.8    80   18.3   8.0   WSW   0.67  11.0     W   21.6   22.6   22.3  1013.0  0.00   0.0   0.000   0.012   32.6    45   19.1   34.8   8.15 1.1295    117    1    100.0    5 
29/07/14  19:20   21.8   21.9   21.8    81   18.4   8.0   WSW   0.67  11.0   WSW   21.6   22.6   22.3  1013.0  0.00   0.0   0.000   0.012   32.7    45   19.2   34.8   8.15 1.1292    117    1    100.0    5 
29/07/14  19:25   21.8   21.8   21.8    81   18.4   8.0   WSW   0.67  11.0   WSW   21.6   22.6   22.3  1013.0  0.00   0.0   0.000   0.012   32.7    45   19.2   34.9   8.15 1.1290    117    1    100.0    5 
29/07/14  19:30   21.7   21.8   21.7    81   18.3   8.0   WSW   0.67  11.0   WSW   21.4   22.5   22.2  1013.0  0.00   0.0   0.000   0.012   32.7    45   19.2   34.9   8.15 1.1290    116    1    100.0    5 
29/07/14  19:35   21.5   21.7   21.5    82   18.3   9.0   WSW   0.75  11.0   WSW   20.7   22.3   21.5  1013.0  0.00   0.0   0.000   0.011   32.7    45   19.2   34.9   8.15 1.1290    117    1    100.0    5 
29/07/14  19:40   21.3   21.5   21.3    83   18.3   8.0   WSW   0.67  11.0   WSW   21.1   22.1   21.8  1013.0  0.00   0.0   0.000   0.010   32.8    44   18.9   34.8   8.03 1.1293    117    1    100.0    5 
29/07/14  19:45   21.3   21.3   21.3    83   18.3   7.0   WSW   0.58  10.0   WSW   21.3   22.1   22.1  1013.0  0.00   0.0   0.000   0.010   32.8    44   18.9   34.8   8.03 1.1293    117    1    100.0    5 
29/07/14  19:50   21.2   21.3   21.2    83   18.2   6.0   WSW   0.50  10.0     W   21.2   22.0   22.0  1013.0  0.00   0.0   0.000   0.010   32.8    44   19.0   34.9   8.03 1.1289    117    1    100.0    5 
29/07/14  19:55   21.2   21.3   21.2    83   18.2   6.0     W   0.50   9.0   WSW   21.2   22.0   22.0  1012.9  0.00   0.0   0.000   0.010   32.8    44   19.0   34.9   8.03 1.1289    117    1    100.0    5 
29/07/14  20:00   21.3   21.3   21.2    83   18.3   6.0     W   0.50   9.0     W   21.3   22.1   22.1  1012.9  0.00   0.0   0.000   0.010   32.9    44   19.0   35.0   8.03 1.1286    117    1    100.0    5 
29/07/14  20:05   21.3   21.3   21.2    83   18.3   5.0     W   0.42   8.0   WSW   21.3   22.1   22.1  1012.9  0.00   0.0   0.000   0.010   32.8    44   19.0   34.9   8.03 1.1289    116    1    100.0    5 
29/07/14  20:10   21.2   21.3   21.2    83   18.2   5.0     W   0.42   8.0     W   21.2   22.0   22.0  1012.9  0.00   0.0   0.000   0.010   32.9    44   19.0   35.0   8.03 1.1286    116    1    100.0    5 
29/07/14  20:15   21.2   21.3   21.2    83   18.2   5.0     W   0.42   8.0     W   21.2   22.0   22.0  1013.0  0.00   0.0   0.000   0.010   32.9    44   19.0   35.0   8.03 1.1287    117    1    100.0    5 
29/07/14  20:20   21.2   21.2   21.2    84   18.4   5.0     W   0.42   8.0   WSW   21.2   21.9   21.9  1013.0  0.00   0.0   0.000   0.010   32.9    44   19.0   35.0   8.03 1.1287    117    1    100.0    5 
29/07/14  20:25   21.2   21.2   21.2    84   18.4   5.0     W   0.42   8.0     W   21.2   21.9   21.9  1013.0  0.00   0.0   0.000   0.010   32.9    44   19.1   35.1   8.02 1.1285    116    1    100.0    5 
29/07/14  20:30   21.2   21.2   21.2    84   18.4   4.0     W   0.33   7.0     W   21.2   22.1   22.1  1013.0  0.00   0.0   0.000   0.010   32.9    44   19.1   35.1   8.02 1.1285    117    1    100.0    5 
29/07/14  20:35   21.2   21.2   21.2    84   18.4   3.0     W   0.25   5.0     W   21.2   21.9   21.9  1013.1  0.00   0.0   0.000   0.010   32.9    44   19.1   35.1   8.02 1.1285    115    1    100.0    5 
29/07/14  20:40   21.2   21.2   21.2    84   18.4   2.0     W   0.17   4.0     W   21.2   21.9   21.9  1013.1  0.00   0.0   0.000   0.010   32.9    44   19.1   35.1   8.02 1.1285    117    1    100.0    5 
29/07/14  20:45   21.2   21.2   21.2    84   18.4   1.0     W   0.08   3.0     W   21.2   21.9   21.9  1013.1  0.00   0.0   0.000   0.010   32.9    44   19.1   35.1   8.02 1.1286    117    1    100.0    5 
29/07/14  20:50   21.2   21.2   21.2    84   18.4   1.0   WNW   0.08   3.0   WNW   21.2   21.9   21.9  1013.1  0.00   0.0   0.000   0.010   32.9    44   19.1   35.1   8.02 1.1286    117    1    100.0    5 
29/07/14  20:55   21.2   21.2   21.2    84   18.4   1.0   WNW   0.08   2.0   WNW   21.2   21.9   21.9  1013.1  0.00   0.0   0.000   0.010   33.0    44   19.1   35.2   8.02 1.1283    117    1    100.0    5 
29/07/14  21:00   21.1   21.2   21.1    84   18.3   1.0   WNW   0.08   2.0   WNW   21.1   21.9   21.9  1013.2  0.00   0.0   0.000   0.010   33.0    44   19.1   35.2   8.02 1.1284    116    1    100.0    5 
29/07/14  21:05   21.1   21.1   21.1    84   18.3   1.0   WNW   0.08   2.0   WNW   21.1   21.9   21.9  1013.2  0.00   0.0   0.000   0.010   33.0    45   19.5   35.4   8.15 1.1278    116    1    100.0    5 
29/07/14  21:10   21.1   21.1   21.1    84   18.2   1.0   WNW   0.08   2.0   WNW   21.1   21.9   21.9  1013.2  0.00   0.0   0.000   0.009   33.0    45   19.5   35.4   8.15 1.1278    116    1    100.0    5 
29/07/14  21:15   21.1   21.1   21.1    84   18.2   1.0   WNW   0.08   2.0   WNW   21.1   21.9   21.9  1013.2  0.00   0.0   0.000   0.009   33.1    45   19.5   35.6   8.15 1.1276    117    1    100.0    5 
29/07/14  21:20   21.0   21.1   21.0    84   18.2   1.0   WNW   0.08   2.0   WNW   21.0   21.8   21.8  1013.3  0.00   0.0   0.000   0.009   33.0    45   19.5   35.4   8.15 1.1279    116    1    100.0    5 
29/07/14  21:25   20.9   21.0   20.9    83   17.9   0.0   WNW   0.00   2.0   WNW   20.9   21.7   21.7  1013.3  0.00   0.0   0.000   0.009   33.1    45   19.5   35.6   8.15 1.1276    115    1    100.0    5 
29/07/14  21:30   20.9   20.9   20.9    83   17.9   1.0   WNW   0.08   3.0   WNW   20.9   21.7   21.7  1013.3  0.00   0.0   0.000   0.009   33.1    45   19.5   35.6   8.15 1.1276    117    1    100.0    5 
29/07/14  21:35   20.7   20.9   20.7    82   17.5   3.0   NNW   0.25   5.0   NNW   20.7   21.6   21.6  1013.3  0.00   0.0   0.000   0.008   33.0    45   19.5   35.4   8.15 1.1280    117    1    100.0    5 
29/07/14  21:40   20.5   20.7   20.5    81   17.1   3.0   NNW   0.25   4.0   NNW   20.5   21.3   21.3  1013.3  0.00   0.0   0.000   0.008   33.1    45   19.5   35.6   8.15 1.1277    117    1    100.0    5 
29/07/14  21:45   20.3   20.5   20.3    79   16.5   3.0   NNW   0.25   5.0   NNW   20.3   21.0   21.0  1013.4  0.00   0.0   0.000   0.007   33.0    45   19.5   35.4   8.15 1.1280    118    1    100.0    5 
29/07/14  21:50   20.1   20.3   20.1    77   16.0   4.0   NNW   0.33   8.0   NNW   20.1   20.7   20.7  1013.4  0.00   0.0   0.000   0.006   33.0    44   19.1   35.2   8.02 1.1286    117    1    100.0    5 
29/07/14  21:55   19.9   20.1   19.9    75   15.3   6.0   NNW   0.50  11.0   NNW   19.9   20.4   20.4  1013.4  0.00   0.0   0.000   0.005   33.1    44   19.2   35.3   8.02 1.1283    117    1    100.0    5 
29/07/14  22:00   19.9   19.9   19.9    73   15.0   6.0   NNW   0.50  12.0   NNW   19.9   20.4   20.4  1013.4  0.00   0.0   0.000   0.006   33.0    44   19.1   35.2   8.02 1.1286    116    1    100.0    5 
29/07/14  22:05   20.1   20.1   19.9    71   14.6   6.0   NNW   0.50  10.0    NW   20.1   20.4   20.4  1013.3  0.00   0.0   0.000   0.006   33.0    44   19.1   35.2   8.02 1.1285    116    1    100.0    5 
29/07/14  22:10   20.2   20.2   20.1    71   14.8   6.0   NNW   0.50  10.0   NNW   20.2   20.6   20.6  1013.3  0.00   0.0   0.000   0.007   33.0    44   19.1   35.2   8.02 1.1285    116    1    100.0    5 
29/07/14  22:15   20.3   20.3   20.2    70   14.6   6.0   NNW   0.50  10.0    NW   20.3   20.6   20.6  1013.4  0.00   0.0   0.000   0.007   33.0    44   19.1   35.2   8.02 1.1286    117    1    100.0    5 
29/07/14  22:20   20.3   20.3   20.3    70   14.6   4.0   NNW   0.33   7.0   NNW   20.3   20.6   20.6  1013.5  0.00   0.0   0.000   0.007   33.0    44   19.1   35.2   8.02 1.1287    116    1    100.0    5 
29/07/14  22:25   20.3   20.3   20.3    70   14.6   5.0    NW   0.42   8.0   NNW   20.3   20.6   20.6  1013.5  0.00   0.0   0.000   0.007   33.0    44   19.1   35.2   8.02 1.1287    117    1    100.0    5 
29/07/14  22:30   20.3   20.3   20.3    70   14.6   4.0   NNW   0.33   6.0    NW   20.3   20.6   20.6  1013.5  0.00   0.0   0.000   0.007   33.0    44   19.1   35.2   8.02 1.1287    115    1    100.0    5 
29/07/14  22:35   20.3   20.3   20.2    70   14.6   5.0   NNW   0.42  11.0     N   20.3   20.6   20.6  1013.5  0.00   0.0   0.000   0.007   33.0    44   19.1   35.2   8.02 1.1288    117    1    100.0    5 
29/07/14  22:40   20.2   20.3   20.2    69   14.3   6.0   NNW   0.50  10.0   NNW   20.2   20.4   20.4  1013.5  0.00   0.0   0.000   0.007   33.0    44   19.1   35.2   8.02 1.1288    117    1    100.0    5 
29/07/14  22:45   20.2   20.2   20.2    69   14.3   7.0   NNW   0.58  11.0    NW   20.2   20.4   20.4  1013.6  0.00   0.0   0.000   0.007   33.0    44   19.1   35.2   8.02 1.1288    117    1    100.0    5 
29/07/14  22:50   20.2   20.2   20.2    69   14.3   7.0   NNW   0.58  10.0   NNW   20.2   20.4   20.4  1013.7  0.00   0.0   0.000   0.007   32.9    43   18.7   34.8   7.90 1.1298    118    1    100.0    5 
29/07/14  22:55   20.2   20.2   20.2    69   14.3   6.0   NNW   0.50  10.0    NW   20.2   20.4   20.4  1013.7  0.00   0.0   0.000   0.006   32.9    43   18.7   34.8   7.90 1.1298    116    1    100.0    5 
29/07/14  23:00   20.1   20.2   20.1    69   14.2   6.0   NNW   0.50  11.0    NW   20.1   20.3   20.3  1013.8  0.00   0.0   0.000   0.006   32.9    43   18.7   34.8   7.90 1.1298    116    1    100.0    5 
29/07/14  23:05   20.0   20.1   20.0    69   14.1   6.0   NNW   0.50  10.0   NNW   20.0   20.3   20.3  1013.8  0.00   0.0   0.000   0.006   32.9    43   18.7   34.8   7.90 1.1298    117    1    100.0    5 
29/07/14  23:10   19.9   20.0   19.9    69   14.1   8.0   NNW   0.67  13.0    NW   19.6   20.2   19.8  1013.8  0.00   0.0   0.000   0.006   32.9    43   18.7   34.8   7.90 1.1302    117    1    100.0    5 
29/07/14  23:15   20.0   20.0   19.9    69   14.1   7.0   NNW   0.58  12.0    NW   20.0   20.3   20.3  1013.9  0.00   0.0   0.000   0.006   32.9    43   18.7   34.8   7.90 1.1302    117    1    100.0    5 
29/07/14  23:20   19.9   20.0   19.9    70   14.3   8.0   NNW   0.67  15.0     N   19.6   20.3   19.9  1013.9  0.00   0.0   0.000   0.006   32.9    43   18.7   34.8   7.90 1.1303    115    1    100.0    5 
29/07/14  23:25   19.9   19.9   19.9    70   14.3   7.0   NNW   0.58  13.0   NNW   19.9   20.3   20.3  1013.9  0.00   0.0   0.000   0.006   32.9    42   18.3   34.5   7.70 1.1309    117    1    100.0    5 
29/07/14  23:30   19.8   19.9   19.8    70   14.2  10.0   NNW   0.83  16.0    NW   18.7   20.1   18.9  1013.9  0.00   0.0   0.000   0.005   32.9    42   18.3   34.5   7.70 1.1309    117    1    100.0    5 
29/07/14  23:35   19.8   19.8   19.8    71   14.4   9.0   NNW   0.75  15.0     N   19.0   20.1   19.3  1014.0  0.00   0.0   0.000   0.005   32.8    42   18.2   34.4   7.71 1.1312    117    1    100.0    5 
29/07/14  23:40   19.7   19.8   19.7    71   14.3   9.0   NNW   0.75  14.0   NNW   19.0   20.1   19.3  1014.0  0.00   0.0   0.000   0.005   32.8    42   18.2   34.4   7.71 1.1312    116    1    100.0    5 
29/07/14  23:45   19.7   19.7   19.7    71   14.3   7.0   NNW   0.58  12.0     N   19.7   19.9   19.9  1014.0  0.00   0.0   0.000   0.005   32.8    42   18.2   34.4   7.71 1.1312    116    1    100.0    5 
29/07/14  23:50   19.6   19.7   19.6    72   14.4   7.0   NNW   0.58  11.0   NNW   19.6   19.9   19.9  1014.0  0.00   0.0   0.000   0.004   32.8    42   18.2   34.4   7.71 1.1312    117    1    100.0    5 
29/07/14  23:55   19.6   19.6   19.6    72   14.4   7.0   NNW   0.58  11.0    NW   19.6   19.9   19.9  1013.9  0.00   0.0   0.000   0.004   32.8    42   18.2   34.3   7.71 1.1314    118    1    100.0    5 
30/07/14  00:00   19.5   19.6   19.5    73   14.5   6.0   NNW   0.50  10.0     N   19.5   19.8   19.8  1013.9  0.00   0.0   0.000   0.004   32.7    42   18.1   34.2   7.71 1.1317    116    1    100.0    5 
30/07/14   0:05   19.4   19.5   19.4    73   14.5   7.0   NNW   0.58  12.0     N   19.4   19.8   19.8  1013.9  0.00   0.0   0.000   0.004   32.7    42   18.1   34.2   7.71 1.1316    114    1    100.0    5 
30/07/14   0:10   19.4   19.4   19.4    73   14.5   8.0     N   0.67  13.0     N   19.1   19.8   19.4  1013.9  0.00   0.0   0.000   0.004   32.7    42   18.1   34.2   7.71 1.1316    117    1    100.0    5 
30/07/14   0:15   19.3   19.4   19.3    73   14.4   8.0     N   0.67  13.0     N   19.0   19.6   19.3  1014.0  0.00   0.0   0.000   0.003   32.7    42   18.1   34.2   7.71 1.1318    115    1    100.0    5 
30/07/14   0:20   19.3   19.3   19.3    73   14.3   7.0     N   0.58  11.0     N   19.3   19.6   19.6  1013.9  0.00   0.0   0.000   0.003   32.7    42   18.1   34.1   7.72 1.1320    117    1    100.0    5 
30/07/14   0:25   19.2   19.2   19.2    74   14.4   8.0     N   0.67  14.0   NNW   18.8   19.4   19.1  1013.9  0.00   0.0   0.000   0.003   32.7    42   18.1   34.1   7.72 1.1320    116    1    100.0    5 
30/07/14   0:30   19.1   19.1   19.1    74   14.3   8.0     N   0.67  14.0     N   18.7   19.3   19.0  1014.0  0.00   0.0   0.000   0.003   32.6    41   17.6   33.8   7.62 1.1329    117    1    100.0    5 
30/07/14   0:35   18.9   19.1   18.9    75   14.4   7.0     N   0.58  13.0   NNW   18.9   19.2   19.2  1013.9  0.00   0.0   0.000   0.002   32.6    41   17.6   33.8   7.62 1.1328    117    1    100.0    5 
30/07/14   0:40   18.9   18.9   18.9    75   14.4   8.0     N   0.67  12.0   NNE   18.6   19.2   18.8  1014.0  0.00   0.0   0.000   0.002   32.6    41   17.6   33.8   7.62 1.1330    117    1    100.0    5 
30/07/14   0:45   18.8   18.9   18.8    75   14.3   6.0     N   0.50  11.0   NNW   18.8   19.1   19.1  1014.0  0.00   0.0   0.000   0.002   32.6    41   17.6   33.7   7.63 1.1332    115    1    100.0    5 
30/07/14   0:50   18.8   18.8   18.8    75   14.3   7.0     N   0.58  11.0   NNW   18.8   19.1   19.1  1014.0  0.00   0.0   0.000   0.002   32.5    41   17.5   33.6   7.63 1.1334    116    1    100.0    5 
30/07/14   0:55   18.7   18.8   18.7    76   14.4   7.0     N   0.58  14.0     N   18.7   19.0   19.0  1014.0  0.00   0.0   0.000   0.001   32.5    41   17.5   33.6   7.63 1.1334    115    1    100.0    5 
30/07/14   1:00   18.7   18.7   18.7    76   14.3   6.0     N   0.50  11.0   NNW   18.7   18.9   18.9  1013.9  0.00   0.0   0.000   0.001   32.5    41   17.5   33.6   7.63 1.1334    117    1    100.0    5 
30/07/14   1:05   18.6   18.7   18.6    76   14.3   7.0     N   0.58  11.0   NNW   18.6   18.9   18.9  1013.9  0.00   0.0   0.000   0.001   32.4    41   17.5   33.5   7.63 1.1336    115    1    100.0    5 
30/07/14   1:10   18.6   18.6   18.6    76   14.2   6.0     N   0.50   9.0     N   18.6   18.8   18.8  1013.8  0.00   0.0   0.000   0.001   32.4    41   17.5   33.5   7.63 1.1336    117    1    100.0    5 
30/07/14   1:15   18.5   18.6   18.5    76   14.2   5.0     N   0.42  10.0     N   18.5   18.7   18.7  1013.8  0.00   0.0   0.000   0.001   32.4    41   17.4   33.4   7.64 1.1338    116    1    100.0    5 
30/07/14   1:20   18.4   18.5   18.4    77   14.3   5.0     N   0.42   8.0    NE   18.4   18.7   18.7  1013.8  0.00   0.0   0.000   0.000   32.4    41   17.4   33.4   7.64 1.1338    117    1    100.0    5 
30/07/14   1:25   18.4   18.4   18.4    77   14.3   5.0     N   0.42   9.0   NNE   18.4   18.7   18.7  1013.8  0.00   0.0   0.000   0.000   32.3    41   17.4   33.3   7.64 1.1341    116    1    100.0    5 
30/07/14   1:30   18.3   18.4   18.3    77   14.2   4.0     N   0.33   8.0     N   18.3   18.6   18.6  1013.8  0.00   0.0   0.000   0.000   32.3    41   17.4   33.3   7.64 1.1341    117    1    100.0    5 
30/07/14   1:35   18.3   18.3   18.3    77   14.2   5.0     N   0.42   8.0     N   18.3   18.5   18.5  1013.7  0.00   0.0   0.000   0.000   32.3    41   17.4   33.3   7.64 1.1340    116    1    100.0    5 
30/07/14   1:40   18.3   18.3   18.3    77   14.2   4.0   NNW   0.33   7.0     N   18.3   18.5   18.5  1013.8  0.00   0.0   0.000   0.000   32.3    41   17.3   33.2   7.65 1.1344    117    1    100.0    5 
30/07/14   1:45   18.3   18.3   18.3    78   14.4   4.0   NNW   0.33   7.0    NW   18.3   18.6   18.6  1013.9  0.00   0.0   0.000   0.000   32.3    41   17.3   33.2   7.65 1.1345    117    1    100.0    5 
30/07/14   1:50   18.3   18.3   18.3    78   14.4   4.0    NW   0.33   7.0   NNW   18.3   18.6   18.6  1014.0  0.00   0.0   0.000   0.000   32.2    41   17.3   33.1   7.65 1.1349    116    1    100.0    5 
30/07/14   1:55   18.3   18.3   18.3    78   14.4   3.0    NW   0.25   6.0    NW   18.3   18.6   18.6  1014.0  0.00   0.0   0.000   0.000   32.2    41   17.3   33.1   7.65 1.1349    116    1    100.0    5 
30/07/14   2:00   18.3   18.3   18.3    78   14.4   4.0   WNW   0.33   7.0    NW   18.3   18.6   18.6  1014.0  0.00   0.0   0.000   0.000   32.2    41   17.2   33.1   7.65 1.1352    117    1    100.0    5 
30/07/14   2:05   18.3   18.3   18.3    78   14.4   4.0   NNW   0.33   7.0   NNW   18.3   18.6   18.6  1014.1  0.00   0.0   0.000   0.000   32.2    41   17.2   33.1   7.65 1.1352    117    1    100.0    5 
30/07/14   2:10   18.4   18.4   18.3    78   14.5   5.0   NNW   0.42   8.0   NNW   18.4   18.7   18.7  1014.0  0.00   0.0   0.000   0.000   32.2    41   17.2   33.1   7.65 1.1352    117    1    100.0    5 
30/07/14   2:15   18.4   18.4   18.4    78   14.5   5.0   NNW   0.42   9.0   NNE   18.4   18.7   18.7  1014.1  0.00   0.0   0.000   0.000   32.1    41   17.2   33.0   7.65 1.1355    117    1    100.0    5 
30/07/14   2:20   18.4   18.4   18.4    78   14.5   4.0   NNW   0.33   9.0   NNW   18.4   18.7   18.7  1014.0  0.00   0.0   0.000   0.000   32.1    41   17.2   33.0   7.65 1.1355    118    1    100.0    5 
30/07/14   2:25   18.4   18.4   18.4    78   14.5   4.0   NNW   0.33   7.0   NNW   18.4   18.7   18.7  1014.1  0.00   0.0   0.000   0.000   32.1    41   17.1   32.9   7.65 1.1358    116    1    100.0    5 
30/07/14   2:30   18.3   18.4   18.3    78   14.4   3.0     N   0.25   7.0   NNW   18.3   18.6   18.6  1014.1  0.00   0.0   0.000   0.000   32.1    41   17.1   32.9   7.65 1.1358    115    1    100.0    5 
30/07/14   2:35   18.3   18.3   18.3    78   14.4   3.0   NNW   0.25   5.0   NNW   18.3   18.6   18.6  1014.1  0.00   0.0   0.000   0.000   32.1    41   17.1   32.9   7.65 1.1358    117    1    100.0    5 
30/07/14   2:40   18.3   18.3   18.3    78   14.4   4.0    NW   0.33   7.0   NNW   18.3   18.6   18.6  1014.1  0.00   0.0   0.000   0.000   32.0    41   17.1   32.8   7.65 1.1361    117    1    100.0    5 
30/07/14   2:45   18.2   18.3   18.2    78   14.3   6.0   NNW   0.50  12.0   NNW   18.2   18.5   18.5  1014.1  0.00   0.0   0.000   0.000   32.0    41   17.1   32.8   7.65 1.1361    116    1    100.0    5 
30/07/14   2:50   18.1   18.2   18.1    78   14.2   7.0     N   0.58  16.0   NNW   18.1   18.4   18.4  1014.1  0.00   0.0   0.001   0.000   31.9    41   17.1   32.8   7.65 1.1364    117    1    100.0    5 
30/07/14   2:55   17.9   18.1   17.9    78   14.1   8.0     N   0.67  16.0     N   17.6   18.2   17.8  1014.2  0.00   0.0   0.001   0.000   31.9    41   17.1   32.8   7.65 1.1364    117    1    100.0    5 
30/07/14   3:00   17.8   17.9   17.8    78   13.9   7.0   NNW   0.58  12.0   NNW   17.8   18.1   18.1  1014.2  0.00   0.0   0.002   0.000   31.9    41   17.0   32.7   7.65 1.1368    116    1    100.0    5 
30/07/14   3:05   17.8   17.8   17.8    78   13.9   7.0   NNW   0.58  12.0    NW   17.8   17.9   17.9  1014.2  0.00   0.0   0.002   0.000   31.9    41   17.0   32.7   7.65 1.1368    116    1    100.0    5 
30/07/14   3:10   17.8   17.8   17.8    78   13.9   7.0   NNW   0.58  12.0   NNW   17.8   17.9   17.9  1014.3  0.00   0.0   0.002   0.000   31.9    41   17.0   32.7   7.65 1.1368    116    1    100.0    5 
30/07/14   3:15   17.7   17.8   17.7    78   13.8   5.0   NNW   0.42   9.0    NW   17.7   17.9   17.9  1014.3  0.00   0.0   0.002   0.000   31.8    41   17.0   32.7   7.65 1.1371    116    1    100.0    5 
30/07/14   3:20   17.7   17.7   17.7    78   13.8   5.0   NNW   0.42   9.0   NNW   17.7   17.9   17.9  1014.2  0.00   0.0   0.002   0.000   31.8    40   16.6   32.4   7.46 1.1376    117    1    100.0    5 
30/07/14   3:25   17.7   17.7   17.7    78   13.8   5.0   NNW   0.42   9.0   NNW   17.7   17.9   17.9  1014.2  0.00   0.0   0.002   0.000   31.8    40   16.5   32.3   7.47 1.1379    117    1    100.0    5 
30/07/14   3:30   17.7   17.7   17.7    78   13.8   5.0   NNW   0.42   9.0   NNW   17.7   17.8   17.8  1014.2  0.00   0.0   0.002   0.000   31.8    40   16.5   32.3   7.47 1.1378    117    1    100.0    5 
30/07/14   3:35   17.7   17.7   17.7    78   13.8   6.0   NNW   0.50   8.0     N   17.7   17.8   17.8  1014.0  0.00   0.0   0.002   0.000   31.7    40   16.5   32.3   7.47 1.1379    117    1    100.0    5 
30/07/14   3:40   17.7   17.7   17.7    78   13.8   7.0   NNW   0.58  12.0   NNW   17.7   17.8   17.8  1014.1  0.00   0.0   0.002   0.000   31.7    40   16.5   32.3   7.47 1.1380    117    1    100.0    5 
30/07/14   3:45   17.6   17.7   17.6    78   13.7   7.0   NNW   0.58  13.0   NNW   17.6   17.7   17.7  1014.0  0.00   0.0   0.003   0.000   31.7    40   16.5   32.3   7.47 1.1379    115    1    100.0    5 
30/07/14   3:50   17.5   17.6   17.5    77   13.4   7.0   NNW   0.58  12.0   NNW   17.5   17.6   17.6  1014.2  0.00   0.0   0.003   0.000   31.7    40   16.4   32.2   7.47 1.1384    117    1    100.0    5 
30/07/14   3:55   17.4   17.5   17.4    77   13.4   7.0   NNW   0.58  12.0   NNW   17.4   17.5   17.4  1014.2  0.00   0.0   0.003   0.000   31.6    40   16.4   32.1   7.47 1.1386    116    1    100.0    5 
30/07/14   4:00   17.4   17.4   17.4    76   13.1   5.0   NNW   0.42  12.0    NW   17.4   17.4   17.4  1014.3  0.00   0.0   0.003   0.000   31.6    40   16.4   32.1   7.47 1.1387    116    1    100.0    5 
30/07/14   4:05   17.3   17.4   17.3    76   13.1   6.0     N   0.50  11.0   NNW   17.3   17.3   17.3  1014.3  0.00   0.0   0.003   0.000   31.6    40   16.4   32.1   7.47 1.1387    116    1    100.0    5 
30/07/14   4:10   17.3   17.4   17.3    76   13.1   6.0     N   0.50  10.0     N   17.3   17.3   17.3  1014.2  0.00   0.0   0.003   0.000   31.6    40   16.4   32.1   7.47 1.1386    117    1    100.0    5 
30/07/14   4:15   17.2   17.3   17.2    76   13.0   6.0     N   0.50   9.0   NNW   17.2   17.2   17.2  1014.2  0.00   0.0   0.004   0.000   31.6    40   16.3   32.0   7.47 1.1389    114    1    100.0    5 
30/07/14   4:20   17.1   17.2   17.1    76   12.8   7.0   NNW   0.58  13.0     N   17.1   17.1   17.1  1014.2  0.00   0.0   0.004   0.000   31.6    40   16.3   32.0   7.47 1.1390    116    1    100.0    5 
30/07/14   4:25   17.1   17.1   17.1    75   12.6   7.0     N   0.58  13.0     N   16.9   17.0   16.9  1014.3  0.00   0.0   0.004   0.000   31.6    40   16.3   32.0   7.47 1.1391    117    1    100.0    5 
30/07/14   4:30   17.0   17.1   17.0    76   12.7   6.0   NNW   0.50  11.0   NNW   17.0   16.9   16.9  1014.2  0.00   0.0   0.005   0.000   31.5    40   16.3   31.9   7.48 1.1393    118    1    100.0    5 
30/07/14   4:35   16.9   17.0   16.9    76   12.7   7.0   NNW   0.58  12.0   NNW   16.8   16.9   16.8  1014.2  0.00   0.0   0.005   0.000   31.5    40   16.3   31.9   7.48 1.1392    117    1    100.0    5 
30/07/14   4:40   16.8   16.9   16.8    76   12.6   7.0   NNW   0.58  11.0   NNW   16.7   16.8   16.7  1014.4  0.00   0.0   0.005   0.000   31.4    40   16.2   31.8   7.48 1.1397    117    1    100.0    5 
30/07/14   4:45   16.8   16.8   16.8    76   12.5   6.0   NNW   0.50  10.0   NNW   16.8   16.7   16.7  1014.4  0.00   0.0   0.005   0.000   31.4    40   16.2   31.8   7.48 1.1397    117    1    100.0    5 
30/07/14   4:50   16.8   16.8   16.7    76   12.5   6.0   NNW   0.50  10.0   NNW   16.8   16.7   16.7  1014.4  0.00   0.0   0.005   0.000   31.4    40   16.2   31.8   7.48 1.1397    117    1    100.0    5 
30/07/14   4:55   16.7   16.8   16.7    76   12.5   4.0   NNW   0.33   7.0   NNW   16.7   16.7   16.7  1014.4  0.00   0.0   0.006   0.000   31.4    40   16.2   31.7   7.48 1.1400    117    1    100.0    5 
30/07/14   5:00   16.7   16.7   16.7    76   12.5   5.0   NNW   0.42   8.0   NNW   16.7   16.7   16.7  1014.4  0.00   0.0   0.006   0.000   31.4    40   16.2   31.7   7.48 1.1400    117    1    100.0    5 
30/07/14   5:05   16.7   16.7   16.7    76   12.5   5.0     N   0.42   8.0   NNW   16.7   16.7   16.7  1014.4  0.00   0.0   0.006   0.000   31.3    40   16.1   31.6   7.48 1.1403    116    1    100.0    5 
30/07/14   5:10   16.7   16.7   16.7    76   12.4   5.0     N   0.42   7.0   NNW   16.7   16.6   16.6  1014.4  0.00   0.0   0.006   0.000   31.3    40   16.1   31.6   7.48 1.1403    117    1    100.0    5 
30/07/14   5:15   16.7   16.7   16.7    76   12.4   6.0   NNW   0.50  10.0   NNW   16.7   16.6   16.6  1014.4  0.00   0.0   0.006   0.000   31.3    40   16.1   31.5   7.48 1.1405    117    1    100.0    5 
30/07/14   5:20   16.7   16.7   16.7    76   12.4   6.0   NNW   0.50   9.0     N   16.7   16.6   16.6  1014.4  0.00   0.0   0.006   0.000   31.3    40   16.1   31.5   7.48 1.1405    117    1    100.0    5 
30/07/14   5:25   16.6   16.7   16.6    76   12.4   6.0   NNW   0.50  10.0   NNW   16.6   16.6   16.6  1014.4  0.00   0.0   0.006   0.000   31.2    40   16.0   31.4   7.49 1.1409    117    1    100.0    5 
30/07/14   5:30   16.6   16.6   16.6    75   12.2   4.0   NNW   0.33   7.0     N   16.6   16.5   16.5  1014.5  0.00   0.0   0.006   0.000   31.2    40   16.0   31.4   7.49 1.1409    117    1    100.0    5 
30/07/14   5:35   16.6   16.6   16.6    76   12.4   4.0   NNW   0.33   9.0     N   16.6   16.6   16.6  1014.5  0.00   0.0   0.006   0.000   31.2    40   16.0   31.3   7.49 1.1412    117    1    100.0    5 
30/07/14   5:40   16.6   16.6   16.6    76   12.3   6.0     N   0.50  10.0   NNW   16.6   16.5   16.5  1014.4  0.00   0.0   0.006   0.000   31.2    39   15.6   31.1   7.29 1.1416    117    1    100.0    5 
30/07/14   5:45   16.6   16.6   16.6    76   12.3   6.0     N   0.50  10.0   NNW   16.6   16.5   16.5  1014.5  0.00   0.0   0.006   0.000   31.1    39   15.5   31.0   7.29 1.1420    116    1    100.0    5 
30/07/14   5:50   16.6   16.6   16.5    76   12.3   5.0     N   0.42   8.0   NNW   16.6   16.5   16.5  1014.6  0.00   0.0   0.006   0.000   31.1    39   15.5   31.0   7.29 1.1421    116    1    100.0    5 
30/07/14   5:55   16.5   16.6   16.5    76   12.3   6.0     N   0.50  11.0   NNW   16.4   16.4   16.3  1014.6  0.00   0.0   0.006   0.000   31.1    39   15.5   31.0   7.29 1.1421    116    1    100.0    5 
30/07/14   6:00   16.5   16.6   16.5    76   12.3   7.0   NNW   0.58  10.0   NNW   16.3   16.4   16.2  1014.6  0.00   0.0   0.006   0.000   31.1    39   15.5   31.0   7.29 1.1423    117    1    100.0    5 
30/07/14   6:05   16.4   16.5   16.4    75   12.0   7.0     N   0.58  11.0     N   16.2   16.3   16.1  1014.5  0.00   0.0   0.007   0.000   31.1    39   15.5   31.0   7.29 1.1423    116    1    100.0    5 
30/07/14   6:10   16.4   16.4   16.4    75   12.0   6.0   NNW   0.50  10.0   NNW   16.4   16.3   16.3  1014.6  0.00   0.0   0.007   0.000   31.0    39   15.4   30.9   7.29 1.1427    117    1    100.0    5 
30/07/14   6:15   16.4   16.4   16.4    75   12.0   7.0   NNW   0.58  11.0   NNW   16.2   16.3   16.1  1014.7  0.00   0.0   0.007   0.000   31.0    39   15.4   30.9   7.29 1.1428    117    1    100.0    5 
30/07/14   6:20   16.4   16.5   16.4    75   12.0   6.0   NNW   0.50  10.0    NW   16.4   16.3   16.3  1014.8  0.00   0.0   0.007   0.000   31.0    39   15.4   30.9   7.29 1.1429    114    1    100.0    5 
30/07/14   6:25   16.5   16.5   16.4    75   12.1   6.0   NNW   0.50   8.0    NW   16.4   16.4   16.3  1014.7  0.00   0.0   0.006   0.000   30.9    39   15.4   30.9   7.30 1.1431    117    1    100.0    5 
30/07/14   6:30   16.5   16.5   16.4    75   12.1   4.0   NNW   0.33   8.0   NNW   16.5   16.4   16.4  1014.7  0.00   0.0   0.006   0.000   30.9    39   15.4   30.9   7.30 1.1431    116    1    100.0    5 
30/07/14   6:35   16.5   16.5   16.5    75   12.1   6.0    NW   0.50  10.0    NW   16.4   16.4   16.3  1014.7  0.00   0.0   0.006   0.000   30.9    39   15.3   30.9   7.30 1.1434    118    1    100.0    5 
30/07/14   6:40   16.5   16.5   16.5    75   12.1   6.0    NW   0.50  10.0   NNW   16.4   16.4   16.3  1014.8  0.00   0.0   0.006   0.000   30.9    39   15.3   30.9   7.30 1.1434    117    1    100.0    5 
30/07/14   6:45   16.5   16.5   16.5    75   12.1   6.0    NW   0.50  10.0   NNW   16.4   16.4   16.3  1014.8  0.00   0.0   0.006   0.000   30.8    39   15.3   30.8   7.30 1.1437    117    1    100.0    5 
30/07/14   6:50   16.5   16.5   16.5    75   12.1   6.0    NW   0.50  10.0    NW   16.4   16.4   16.3  1014.8  0.00   0.0   0.006   0.000   30.8    39   15.3   30.8   7.30 1.1437    114    1    100.0    5 
30/07/14   6:55   16.5   16.5   16.5    76   12.3   6.0    NW   0.50  10.0    NW   16.4   16.4   16.3  1014.9  0.00   0.0   0.006   0.000   30.8    39   15.2   30.8   7.30 1.1441    117    1    100.0    5 
30/07/14   7:00   16.4   16.5   16.4    76   12.2   7.0   NNW   0.58   9.0    NW   16.2   16.3   16.1  1014.9  0.00   0.0   0.007   0.000   30.8    39   15.2   30.8   7.30 1.1441    116    1    100.0    5 
30/07/14   7:05   16.3   16.4   16.3    76   12.1   6.0   NNW   0.50  10.0   NNW   16.3   16.2   16.2  1014.9  0.00   0.0   0.007   0.000   30.8    39   15.2   30.8   7.30 1.1441    116    1    100.0    5 
30/07/14   7:10   16.3   16.3   16.3    77   12.3   6.0   NNW   0.50  11.0    NW   16.3   16.3   16.2  1015.0  0.00   0.0   0.007   0.000   30.8    39   15.2   30.8   7.30 1.1442    117    1    100.0    5 
30/07/14   7:15   16.3   16.3   16.3    77   12.3   6.0   NNW   0.50  10.0   NNW   16.3   16.3   16.2  1015.0  0.00   0.0   0.007   0.000   30.7    39   15.2   30.8   7.30 1.1444    116    1    100.0    5 
30/07/14   7:20   16.3   16.3   16.3    77   12.3   5.0   NNW   0.42   8.0     N   16.3   16.3   16.3  1015.0  0.00   0.0   0.007   0.000   30.7    39   15.2   30.8   7.30 1.1444    117    1    100.0    5 
30/07/14   7:25   16.4   16.4   16.3    77   12.3   6.0   NNW   0.50   9.0   NNW   16.3   16.3   16.3  1015.0  0.00   0.0   0.007   0.000   30.7    39   15.2   30.8   7.30 1.1444    117    1    100.0    5 
30/07/14   7:30   16.4   16.5   16.4    76   12.2   6.0    NW   0.50  10.0   NNW   16.4   16.3   16.3  1015.0  0.00   0.0   0.007   0.000   30.7    39   15.2   30.8   7.30 1.1445    116    1    100.0    5 
30/07/14   7:35   16.6   16.6   16.5    76   12.4   7.0   NNW   0.58  11.0    NW   16.4   16.6   16.4  1015.2  0.00   0.0   0.006   0.000   30.7    39   15.2   30.8   7.30 1.1447    117    1    100.0    5 
30/07/14   7:40   16.7   16.7   16.6    75   12.2   6.0   NNW   0.50  10.0   NNW   16.7   16.6   16.6  1015.1  0.00   0.0   0.006   0.000   30.7    39   15.2   30.8   7.30 1.1446    117    1    100.0    5 
30/07/14   7:45   16.7   16.8   16.7    75   12.3   6.0   NNW   0.50  10.0   NNW   16.7   16.6   16.6  1015.2  0.00   0.0   0.006   0.000   30.7    39   15.2   30.8   7.30 1.1447    117    1    100.0    5 
30/07/14   7:50   16.9   16.9   16.8    75   12.4   6.0   NNW   0.50   9.0   NNW   16.9   16.8   16.8  1015.2  0.00   0.0   0.005   0.000   30.7    39   15.2   30.8   7.30 1.1448    117    1    100.0    5 
30/07/14   7:55   17.0   17.0   16.9    74   12.3   4.0     N   0.33   9.0   NNE   17.0   16.9   16.9  1015.3  0.00   0.0   0.005   0.000   30.7    39   15.2   30.8   7.30 1.1449    116    1    100.0    5 
30/07/14   8:00   17.2   17.2   17.0    73   12.3   4.0   NNW   0.33   8.0   NNW   17.2   17.1   17.1  1015.4  0.00   0.0   0.004   0.000   30.7    39   15.2   30.8   7.30 1.1449    115    1    100.0    5 
30/07/14   8:05   17.3   17.3   17.2    74   12.7   6.0     N   0.50  10.0     N   17.3   17.3   17.3  1015.3  0.00   0.0   0.003   0.000   30.7    39   15.2   30.8   7.30 1.1448    117    1    100.0    5 
30/07/14   8:10   17.5   17.5   17.4    72   12.4   7.0     N   0.58  12.0     N   17.5   17.4   17.4  1015.4  0.00   0.0   0.003   0.000   30.7    39   15.2   30.8   7.30 1.1450    116    1    100.0    5 
30/07/14   8:15   17.7   17.7   17.5    72   12.6   8.0     N   0.67  12.0   NNW   17.2   17.6   17.2  1015.4  0.00   0.0   0.002   0.000   30.7    39   15.2   30.8   7.30 1.1450    117    1    100.0    5 
30/07/14   8:20   17.8   17.8   17.7    72   12.7   7.0     N   0.58  11.0   NNW   17.8   17.8   17.8  1015.5  0.00   0.0   0.002   0.000   30.7    39   15.2   30.8   7.30 1.1451    116    1    100.0    5 
30/07/14   8:25   18.0   18.0   17.8    71   12.7   6.0     N   0.50  10.0   NNE   18.0   17.9   17.9  1015.6  0.00   0.0   0.001   0.000   30.7    39   15.2   30.8   7.30 1.1452    117    1    100.0    5 
30/07/14   8:30   18.2   18.2   18.0    70   12.6   7.0     N   0.58  10.0   NNW   18.2   18.1   18.1  1015.6  0.00   0.0   0.001   0.000   30.7    39   15.2   30.8   7.30 1.1451    116    1    100.0    5 
30/07/14   8:35   18.3   18.3   18.2    69   12.5   6.0   NNW   0.50  12.0   NNW   18.3   18.2   18.2  1015.6  0.00   0.0   0.000   0.000   30.8    39   15.2   30.8   7.30 1.1449    117    1    100.0    5 
30/07/14   8:40   18.4   18.4   18.3    68   12.4   8.0   NNE   0.67  13.0   NNE   18.1   18.4   18.1  1015.6  0.00   0.0   0.000   0.000   30.8    39   15.2   30.8   7.30 1.1449    116    1    100.0    5 
30/07/14   8:45   18.7   18.7   18.4    67   12.4   6.0   NNE   0.50  13.0    NE   18.7   18.6   18.6  1015.6  0.00   0.0   0.000   0.001   30.8    39   15.2   30.8   7.30 1.1449    117    1    100.0    5 
30/07/14   8:50   18.9   18.9   18.7    68   12.9   5.0     N   0.42  11.0   NNE   18.9   18.9   18.9  1015.8  0.00   0.0   0.000   0.002   30.7    38   14.8   30.6   7.20 1.1458    117    1    100.0    5 
30/07/14   8:55   19.0   19.0   18.9    66   12.5   5.0   NNW   0.42  10.0    NW   19.0   18.9   18.9  1015.7  0.00   0.0   0.000   0.002   30.7    38   14.7   30.6   7.21 1.1460    116    1    100.0    5 
30/07/14   9:00   19.2   19.2   19.0    65   12.4   8.0   NNW   0.67  14.0   NNW   18.8   19.1   18.8  1015.6  0.00   0.0   0.000   0.003   30.6    38   14.7   30.6   7.21 1.1463    117    1    100.0    5 
30/07/14   9:05   19.3   19.3   19.2    65   12.5   6.0   NNW   0.50  10.0   NNW   19.3   19.2   19.2  1015.8  0.00   0.0   0.000   0.003   30.6    38   14.6   30.5   7.21 1.1467    117    1    100.0    5 
30/07/14   9:10   19.4   19.4   19.3    64   12.4   7.0   NNW   0.58  12.0   NNW   19.4   19.3   19.3  1015.7  0.00   0.0   0.000   0.004   30.5    37   14.2   30.3   7.01 1.1474    117    1    100.0    5 
30/07/14   9:15   19.4   19.4   19.4    63   12.2   8.0    NW   0.67  15.0   NNW   19.1   19.3   18.9  1015.7  0.00   0.0   0.000   0.004   30.4    37   14.1   30.2   7.02 1.1479    116    1    100.0    5 
30/07/14   9:20   19.5   19.5   19.4    63   12.3   7.0   NNW   0.58  11.0    NW   19.5   19.4   19.4  1015.7  0.00   0.0   0.000   0.004   30.3    37   14.0   30.2   7.02 1.1482    117    1    100.0    5 
30/07/14   9:25   19.7   19.7   19.5    63   12.4   8.0   NNW   0.67  14.0   NNW   19.3   19.6   19.3  1015.7  0.00   0.0   0.000   0.005   30.3    36   13.5   30.0   6.78 1.1490    117    1    100.0    5 
30/07/14   9:30   19.7   19.7   19.7    64   12.7   7.0   NNW   0.58  12.0   NNW   19.7   19.7   19.7  1015.6  0.00   0.0   0.000   0.005   30.2    36   13.5   29.9   6.78 1.1491    117    1    100.0    5 
30/07/14   9:35   19.8   19.8   19.7    63   12.5   7.0    NW   0.58  11.0   WNW   19.8   19.7   19.7  1015.6  0.00   0.0   0.000   0.005   30.2    36   13.4   29.9   6.78 1.1494    117    1    100.0    5 
30/07/14   9:40   20.1   20.1   19.8    64   13.0   5.0   NNW   0.42  10.0     N   20.1   20.1   20.1  1015.6  0.00   0.0   0.000   0.006   30.1    36   13.4   29.8   6.77 1.1496    117    1    100.0    5 
30/07/14   9:45   20.3   20.3   20.1    62   12.8   7.0   NNW   0.58  14.0     N   20.3   20.2   20.2  1015.8  0.00   0.0   0.000   0.007   30.1    36   13.3   29.8   6.77 1.1501    118    1    100.0    5 
30/07/14   9:50   20.4   20.4   20.3    63   13.2   7.0     N   0.58  12.0     N   20.4   20.3   20.3  1015.7  0.00   0.0   0.000   0.007   30.0    36   13.3   29.7   6.77 1.1503    117    1    100.0    5 
30/07/14   9:55   20.4   20.4   20.4    61   12.7   7.0   NNW   0.58  14.0   NNW   20.4   20.2   20.2  1015.6  0.00   0.0   0.000   0.007   29.9    37   13.7   29.8   7.03 1.1500    117    1    100.0    5 
30/07/14  10:00   20.5   20.5   20.4    61   12.7   7.0   NNW   0.58  13.0    NW   20.5   20.2   20.2  1015.6  0.00   0.0   0.000   0.008   29.9    36   13.2   29.7   6.77 1.1504    117    1    100.0    5 
30/07/14  10:05   20.8   20.8   20.5    62   13.3   7.0     N   0.58  12.0   NNW   20.8   20.6   20.6  1015.7  0.00   0.0   0.000   0.009   29.9    36   13.2   29.7   6.77 1.1506    116    1    100.0    5 
30/07/14  10:10   21.1   21.1   20.8    60   13.0   7.0   NNW   0.58  11.0   NNW   21.1   20.6   20.6  1015.8  0.00   0.0   0.000   0.009   29.9    37   13.6   29.7   7.03 1.1504    116    1    100.0    5 
30/07/14  10:15   20.9   21.1   20.9    58   12.4   5.0    NW   0.42   9.0    NW   20.9   20.4   20.4  1015.8  0.00   0.0   0.000   0.009   29.9    37   13.6   29.7   7.03 1.1504    117    1    100.0    5 
30/07/14  10:20   20.9   21.0   20.9    60   12.9   6.0     N   0.50  11.0   NNW   20.9   20.6   20.6  1015.7  0.00   0.0   0.000   0.009   29.9    37   13.6   29.7   7.03 1.1503    116    1    100.0    5 
30/07/14  10:25   21.2   21.2   21.0    60   13.1   5.0   NNW   0.42  10.0   NNW   21.2   20.7   20.7  1015.7  0.00   0.0   0.000   0.010   29.9    37   13.6   29.7   7.03 1.1503    117    1    100.0    5 
30/07/14  10:30   21.3   21.3   21.2    60   13.2   7.0   NNW   0.58  12.0    NW   21.3   20.9   20.9  1015.8  0.00   0.0   0.000   0.010   29.9    37   13.6   29.7   7.03 1.1504    117    1    100.0    5 
30/07/14  10:35   21.0   21.3   21.0    57   12.2   7.0    NW   0.58  12.0    NW   21.0   20.4   20.4  1015.7  0.00   0.0   0.000   0.009   29.8    37   13.6   29.6   7.04 1.1506    117    1    100.0    5 
30/07/14  10:40   20.7   21.0   20.7    58   12.2   7.0    NW   0.58  12.0   WNW   20.7   20.3   20.3  1015.7  0.00   0.0   0.000   0.008   29.8    37   13.6   29.6   7.04 1.1506    117    1    100.0    5 
30/07/14  10:45   20.6   20.7   20.6    61   12.8   4.0    NW   0.33   9.0    NW   20.6   20.3   20.3  1015.7  0.00   0.0   0.000   0.008   29.8    36   13.2   29.6   6.76 1.1511    118    1    100.0    5 
30/07/14  10:50   20.7   20.7   20.6    61   12.9   3.0    NW   0.25   6.0   NNW   20.7   20.4   20.4  1015.8  0.00   0.0   0.000   0.008   29.8    36   13.2   29.6   6.76 1.1512    116    1    100.0    5 
30/07/14  10:55   20.7   20.7   20.7    59   12.4   3.0    NW   0.25   7.0    NW   20.7   20.3   20.3  1015.8  0.00   0.0   0.000   0.008   29.8    36   13.1   29.4   6.76 1.1514    117    1    100.0    5 
30/07/14  11:00   20.8   20.8   20.7    59   12.5   3.0    NW   0.25  10.0     W   20.8   20.3   20.3  1015.8  0.00   0.0   0.000   0.008   29.8    37   13.6   29.6   7.04 1.1506    117    1    100.0    5 
30/07/14  11:05   20.7   20.8   20.7    58   12.2   7.0    NW   0.58  12.0    NW   20.7   20.3   20.3  1015.8  0.00   0.0   0.000   0.008   29.8    37   13.6   29.6   7.04 1.1506    117    1    100.0    5 
30/07/14  11:10   20.4   20.7   20.4    58   11.9   5.0   WNW   0.42   9.0   WNW   20.4   20.1   20.1  1015.8  0.00   0.0   0.000   0.007   29.8    37   13.6   29.6   7.04 1.1506    117    1    100.0    5 
30/07/14  11:15   20.4   20.4   20.3    58   11.8   6.0    NW   0.50  12.0    NW   20.4   20.0   20.0  1015.7  0.00   0.0   0.000   0.007   29.8    37   13.5   29.6   7.04 1.1509    117    1    100.0    5 
30/07/14  11:20   20.8   20.8   20.4    57   11.9   7.0    NW   0.58  13.0    NW   20.8   20.3   20.3  1015.8  0.00   0.0   0.000   0.008   29.8    37   13.5   29.6   7.04 1.1509    117    1    100.0    5 
30/07/14  11:25   21.3   21.3   20.8    60   13.2   6.0   NNW   0.50  12.0    NW   21.3   20.9   20.9  1015.6  0.00   0.0   0.000   0.010   29.7    37   13.5   29.5   7.04 1.1511    115    1    100.0    5 
30/07/14  11:30   21.6   21.6   21.3    57   12.7   5.0    NW   0.42   8.0     W   21.6   21.2   21.2  1015.6  0.00   0.0   0.000   0.011   29.7    37   13.5   29.5   7.04 1.1510    117    1    100.0    5 
30/07/14  11:35   21.9   21.9   21.7    58   13.3   4.0    NW   0.33  11.0   NNW   21.9   21.7   21.7  1015.6  0.00   0.0   0.000   0.013   29.8    37   13.5   29.6   7.04 1.1508    116    1    100.0    5 
30/07/14  11:40   22.3   22.3   21.9    57   13.4   4.0   NNW   0.33   9.0   NNW   22.3   22.2   22.2  1015.5  0.00   0.0   0.000   0.014   29.8    37   13.5   29.6   7.04 1.1506    117    1    100.0    5 
30/07/14  11:45   22.3   22.4   22.3    54   12.6   2.0    NW   0.17   6.0   WNW   22.3   22.1   22.1  1015.6  0.00   0.0   0.000   0.014   29.8    37   13.5   29.6   7.04 1.1507    117    1    100.0    5 
30/07/14  11:50   22.1   22.3   22.1    54   12.4   6.0    NW   0.50  11.0    NW   22.1   21.7   21.7  1015.7  0.00   0.0   0.000   0.013   29.8    37   13.6   29.6   7.04 1.1506    117    1    100.0    5 
30/07/14  11:55   22.1   22.1   22.1    54   12.4   4.0   WNW   0.33  14.0   NNW   22.1   21.7   21.7  1015.6  0.00   0.0   0.000   0.013   29.8    36   13.2   29.6   6.76 1.1509    117    1    100.0    5 
30/07/14  12:00   22.1   22.2   22.1    54   12.4   7.0   WNW   0.58  12.0    NW   22.1   21.7   21.7  1015.5  0.00   0.0   0.000   0.013   29.8    36   13.2   29.6   6.76 1.1509    117    1    100.0    5 
30/07/14  12:05   22.1   22.1   22.1    53   12.1   7.0   WNW   0.58  12.0    NW   22.1   21.7   21.7  1015.6  0.00   0.0   0.000   0.013   29.8    36   13.2   29.6   6.76 1.1509    117    1    100.0    5 
30/07/14  12:10   22.2   22.2   22.1    54   12.4   6.0   WNW   0.50  10.0   WNW   22.2   21.8   21.8  1015.5  0.00   0.0   0.000   0.013   29.8    36   13.2   29.6   6.76 1.1508    116    1    100.0    5 
30/07/14  12:15   22.2   22.2   22.1    55   12.7   4.0     W   0.33   9.0     W   22.2   21.9   21.9  1015.5  0.00   0.0   0.000   0.014   29.8    36   13.2   29.6   6.76 1.1509    117    1    100.0    5 
30/07/14  12:20   22.3   22.3   22.2    54   12.5   6.0     W   0.50  16.0   NNW   22.3   22.0   22.0  1015.4  0.00   0.0   0.000   0.014   29.8    36   13.2   29.6   6.76 1.1508    117    1    100.0    5 
30/07/14  12:25   22.4   22.4   22.3    53   12.4   5.0   WNW   0.42  10.0   WNW   22.4   22.2   22.2  1015.5  0.00   0.0   0.000   0.014   29.9    36   13.2   29.6   6.77 1.1506    117    1    100.0    5 
30/07/14  12:30   22.5   22.5   22.4    53   12.4   3.0     W   0.25   7.0     W   22.5   22.3   22.3  1015.4  0.00   0.0   0.000   0.014   29.9    36   13.2   29.6   6.77 1.1505    116    1    100.0    5 
30/07/14  12:35   22.6   22.6   22.5    52   12.3   6.0   WNW   0.50  13.0     W   22.6   22.4   22.4  1015.4  0.00   0.0   0.000   0.015   29.9    36   13.2   29.7   6.77 1.1502    117    1    100.0    5 
30/07/14  12:40   22.6   22.7   22.6    54   12.8   8.0   NNW   0.67  13.0   WNW   22.3   22.5   22.2  1015.4  0.00   0.0   0.000   0.015   30.0    36   13.3   29.7   6.77 1.1499    117    1    100.0    5 
30/07/14  12:45   22.7   22.7   22.6    52   12.4   4.0   WNW   0.33   8.0    NW   22.7   22.6   22.6  1015.4  0.00   0.0   0.000   0.015   30.0    36   13.3   29.7   6.77 1.1499    117    1    100.0    5 
30/07/14  12:50   23.1   23.1   22.7    54   13.2   4.0     W   0.33  10.0     N   23.1   23.1   23.1  1015.4  0.00   0.0   0.000   0.016   30.0    36   13.3   29.7   6.77 1.1499    117    1    100.0    5 
30/07/14  12:55   23.2   23.2   23.1    50   12.2   6.0   WNW   0.50  11.0    NW   23.2   22.9   22.9  1015.4  0.00   0.0   0.000   0.017   30.0    36   13.3   29.7   6.77 1.1499    117    1    100.0    5 
30/07/14  13:00   22.3   23.2   22.3    57   13.4   6.0   WSW   0.50   9.0   WSW   22.3   22.2   22.2  1015.4  0.00   0.0   0.000   0.014   30.1    36   13.3   29.8   6.77 1.1497    117    1    100.0    5 
30/07/14  13:05   21.4   22.3   21.4    61   13.6   8.0    SW   0.67  11.0    SW   21.2   21.2   20.9  1015.4  0.00   0.0   0.000   0.011   30.1    36   13.3   29.8   6.77 1.1496    115    1    100.0    5 
30/07/14  13:10   20.9   21.4   20.9    65   14.1   7.0   SSW   0.58  10.0    SW   20.9   20.8   20.8  1015.3  0.00   0.0   0.000   0.009   30.1    37   13.8   29.9   7.03 1.1491    116    1    100.0    5 
30/07/14  13:15   20.9   20.9   20.8    68   14.8  10.0   SSW   0.83  12.0    SW   19.8   20.9   19.8  1015.2  0.00   0.0   0.000   0.009   30.1    37   13.8   29.9   7.03 1.1490    117    1    100.0    5 
30/07/14  13:20   20.8   20.9   20.8    68   14.7  12.0    SW   1.00  15.0    SW   19.1   20.9   19.2  1015.2  0.00   0.0   0.000   0.009   30.0    38   14.1   29.9   7.23 1.1488    117    1    100.0    5 
30/07/14  13:25   20.8   20.8   20.8    70   15.1  12.0    SW   1.00  15.0    SW   19.1   20.9   19.2  1015.2  0.00   0.0   0.000   0.008   29.9    38   14.1   29.8   7.23 1.1490    117    1    100.0    5 
30/07/14  13:30   20.7   20.7   20.7    69   14.8  12.0    SW   1.00  16.0    SW   19.0   20.8   19.1  1015.1  0.00   0.0   0.000   0.008   29.9    38   14.1   29.8   7.23 1.1489    117    1    100.0    5 
30/07/14  13:35   20.7   20.7   20.7    69   14.8  12.0    SW   1.00  16.0    SW   19.0   20.8   19.1  1015.1  0.00   0.0   0.000   0.008   29.9    39   14.5   29.9   7.33 1.1484    116    1    100.0    5 
30/07/14  13:40   20.8   20.8   20.7    70   15.1  12.0    SW   1.00  15.0   WSW   19.1   20.9   19.2  1015.0  0.00   0.0   0.000   0.008   29.9    39   14.4   29.9   7.33 1.1486    117    1    100.0    5 
30/07/14  13:45   20.6   20.8   20.6    67   14.3  13.0    SW   1.08  16.0    SW   18.6   20.7   18.7  1015.0  0.00   0.0   0.000   0.008   29.9    39   14.5   29.9   7.33 1.1482    116    1    100.0    5 
30/07/14  13:50   20.7   20.7   20.6    68   14.5  13.0    SW   1.08  17.0    SW   18.7   20.7   18.7  1014.9  0.00   0.0   0.000   0.008   29.9    39   14.4   29.9   7.33 1.1484    116    1    100.0    5 
30/07/14  13:55   20.8   20.9   20.7    68   14.7  13.0    SW   1.08  16.0    SW   18.9   20.9   18.9  1014.8  0.00   0.0   0.000   0.009   29.9    39   14.4   29.9   7.33 1.1483    118    1    100.0    5 
30/07/14  14:00   20.9   20.9   20.8    68   14.8  13.0    SW   1.08  16.0    SW   19.0   20.9   19.0  1014.8  0.00   0.0   0.000   0.009   29.9    39   14.5   29.9   7.33 1.1481    116    1    100.0    5 
94556